Time,TemperatureF,DewpointF,PressureIn,WindDirection,WindDirectionDegrees,WindSpeedMPH,WindSpeedGustMPH,Humidity,HourlyPrecipIn,Conditions,Clouds,dailyrainin,SoftwareType,DateUTC
2013-02-26 00:01:00,33.1,30.9,30.30,SSE,157,0.0,0.0,92,0.00,,,0.00,WUHU21636XXSP,2013-02-26 08:01:00,
2013-02-26 00:04:00,33.1,30.9,30.30,SSE,157,0.0,0.0,92,0.00,,,0.00,WUHU21636XXSP,2013-02-26 08:04:00,
2013-02-26 00:06:00,33.1,30.9,30.30,SSE,157,0.0,0.0,92,0.00,,,0.00,WUHU21636XXSP,2013-02-26 08:06:00,
2013-02-26 00:09:00,32.7,30.5,30.30,SSE,157,0.0,0.0,92,0.00,,,0.00,WUHU21636XXSP,2013-02-26 08:09:00,
2013-02-26 00:11:00,32.7,30.5,30.30,SSE,157,0.0,0.0,92,0.00,,,0.00,WUHU21636XXSP,2013-02-26 08:11:00,
2013-02-26 00:14:00,32.7,30.5,30.30,SSE,157,0.0,0.0,92,0.00,,,0.00,WUHU21636XXSP,2013-02-26 08:14:00,
2013-02-26 00:15:00,32.7,30.5,30.30,SSE,157,0.0,0.0,92,0.00,,,0.00,WUHU21636XXSP,2013-02-26 08:15:00,
2013-02-26 00:17:00,32.7,30.5,30.30,SSE,157,0.0,0.0,92,0.00,,,0.00,WUHU21636XXSP,2013-02-26 08:17:00,
2013-02-26 00:19:00,32.5,30.6,30.30,SSE,157,0.0,0.0,93,0.00,,,0.00,WUHU21636XXSP,2013-02-26 08:19:00,
2013-02-26 00:20:00,32.5,30.6,30.30,SSE,157,0.0,0.0,93,0.00,,,0.00,WUHU21636XXSP,2013-02-26 08:20:00,
2013-02-26 00:22:00,32.5,30.6,30.30,SSE,157,0.0,0.0,93,0.00,,,0.00,WUHU21636XXSP,2013-02-26 08:22:00,
2013-02-26 00:24:00,32.5,30.6,30.30,SSE,157,0.0,0.0,93,0.00,,,0.00,WUHU21636XXSP,2013-02-26 08:24:00,
2013-02-26 00:25:00,32.5,30.6,30.30,SSE,157,0.0,0.0,93,0.00,,,0.00,WUHU21636XXSP,2013-02-26 08:25:00,
2013-02-26 00:27:00,32.7,30.8,30.31,SSE,157,0.0,0.0,93,0.00,,,0.00,WUHU21636XXSP,2013-02-26 08:27:00,
2013-02-26 00:29:00,32.7,30.8,30.31,SSE,157,0.0,0.0,93,0.00,,,0.00,WUHU21636XXSP,2013-02-26 08:29:00,
2013-02-26 00:30:00,32.7,30.8,30.31,SSE,157,0.0,0.0,93,0.00,,,0.00,WUHU21636XXSP,2013-02-26 08:30:00,
2013-02-26 00:32:00,32.9,31.0,30.31,SSE,157,0.0,0.0,93,0.00,,,0.00,WUHU21636XXSP,2013-02-26 08:32:00,
2013-02-26 00:34:00,32.9,31.0,30.32,SSE,157,0.0,0.0,93,0.00,,,0.00,WUHU21636XXSP,2013-02-26 08:34:00,
2013-02-26 00:35:00,32.9,31.0,30.32,SSE,157,0.0,0.0,93,0.00,,,0.00,WUHU21636XXSP,2013-02-26 08:35:00,
2013-02-26 00:39:00,33.1,31.2,30.32,SSE,157,0.0,0.0,93,0.00,,,0.00,WUHU21636XXSP,2013-02-26 08:39:00,
2013-02-26 00:40:00,33.1,31.2,30.31,SSE,157,0.0,0.0,93,0.00,,,0.00,WUHU21636XXSP,2013-02-26 08:40:00,
2013-02-26 00:44:00,33.1,31.2,30.31,SSE,157,0.0,0.0,93,0.00,,,0.00,WUHU21636XXSP,2013-02-26 08:44:00,
2013-02-26 00:45:00,33.1,31.2,30.31,SSE,157,0.0,0.0,93,0.00,,,0.00,WUHU21636XXSP,2013-02-26 08:45:00,
2013-02-26 00:49:00,33.1,31.2,30.31,SSE,157,0.0,0.0,93,0.00,,,0.00,WUHU21636XXSP,2013-02-26 08:49:00,
2013-02-26 00:50:00,32.9,31.0,30.31,SSE,157,0.0,0.0,93,0.00,,,0.00,WUHU21636XXSP,2013-02-26 08:50:00,
2013-02-26 00:51:00,32.9,31.0,30.31,SSE,157,0.0,0.0,93,0.00,,,0.00,WUHU21636XXSP,2013-02-26 08:51:00,
2013-02-26 00:55:00,32.7,30.8,30.31,SSE,157,0.0,0.0,93,0.00,,,0.00,WUHU21636XXSP,2013-02-26 08:55:00,
2013-02-26 00:56:00,32.7,30.8,30.31,SSE,157,0.0,0.0,93,0.00,,,0.00,WUHU21636XXSP,2013-02-26 08:56:00,
2013-02-26 01:00:00,32.5,30.6,30.31,SSE,157,0.0,0.0,93,0.00,,,0.00,WUHU21636XXSP,2013-02-26 09:00:00,
2013-02-26 01:01:00,32.5,30.6,30.31,SSE,157,0.0,0.0,93,0.00,,,0.00,WUHU21636XXSP,2013-02-26 09:01:00,
2013-02-26 01:05:00,32.5,30.6,30.31,SSE,157,0.0,0.0,93,0.00,,,0.00,WUHU21636XXSP,2013-02-26 09:05:00,
2013-02-26 01:06:00,32.5,30.6,30.31,SSE,157,0.0,0.0,93,0.00,,,0.00,WUHU21636XXSP,2013-02-26 09:06:00,
2013-02-26 01:10:00,32.5,30.6,30.31,SSE,157,0.0,0.0,93,0.00,,,0.00,WUHU21636XXSP,2013-02-26 09:10:00,
2013-02-26 01:11:00,32.5,30.6,30.31,SSE,157,0.0,0.0,93,0.00,,,0.00,WUHU21636XXSP,2013-02-26 09:11:00,
2013-02-26 01:15:00,32.5,30.6,30.32,SSE,157,0.0,0.0,93,0.00,,,0.00,WUHU21636XXSP,2013-02-26 09:15:00,
2013-02-26 01:16:00,32.7,30.8,30.32,SSE,157,0.0,0.0,93,0.00,,,0.00,WUHU21636XXSP,2013-02-26 09:16:00,
2013-02-26 01:20:00,32.7,31.0,30.32,SSE,157,0.0,0.0,94,0.00,,,0.00,WUHU21636XXSP,2013-02-26 09:20:00,
2013-02-26 01:21:00,32.7,31.0,30.32,SSE,157,0.0,0.0,94,0.00,,,0.00,WUHU21636XXSP,2013-02-26 09:21:00,
2013-02-26 01:25:00,32.7,31.0,30.32,SSE,157,0.0,0.0,94,0.00,,,0.00,WUHU21636XXSP,2013-02-26 09:25:00,
2013-02-26 01:26:00,32.7,31.0,30.32,SSE,157,0.0,0.0,94,0.00,,,0.00,WUHU21636XXSP,2013-02-26 09:26:00,
2013-02-26 01:30:00,32.5,30.8,30.32,SSE,157,0.0,0.0,94,0.00,,,0.00,WUHU21636XXSP,2013-02-26 09:30:00,
2013-02-26 01:31:00,32.5,30.8,30.32,SSE,157,0.0,0.0,94,0.00,,,0.00,WUHU21636XXSP,2013-02-26 09:31:00,
2013-02-26 01:35:00,32.2,30.5,30.32,SSE,157,0.0,0.0,94,0.00,,,0.00,WUHU21636XXSP,2013-02-26 09:35:00,
2013-02-26 01:37:00,32.2,30.5,30.32,SSE,157,0.0,0.0,94,0.00,,,0.00,WUHU21636XXSP,2013-02-26 09:37:00,
2013-02-26 01:40:00,32.2,30.3,30.32,SSE,157,0.0,0.0,93,0.00,,,0.00,WUHU21636XXSP,2013-02-26 09:40:00,
2013-02-26 01:42:00,32.0,30.1,30.32,SSE,157,0.0,0.0,93,0.00,,,0.00,WUHU21636XXSP,2013-02-26 09:42:00,
2013-02-26 01:45:00,32.0,30.1,30.32,SSE,157,0.0,0.0,93,0.00,,,0.00,WUHU21636XXSP,2013-02-26 09:45:00,
2013-02-26 01:46:00,32.0,30.1,30.32,SSE,157,0.0,0.0,93,0.00,,,0.00,WUHU21636XXSP,2013-02-26 09:46:00,
2013-02-26 01:47:00,32.2,30.3,30.32,SSE,157,0.0,0.0,93,0.00,,,0.00,WUHU21636XXSP,2013-02-26 09:47:00,
2013-02-26 01:50:00,32.2,30.5,30.32,SSE,157,0.0,0.0,94,0.00,,,0.00,WUHU21636XXSP,2013-02-26 09:50:00,
2013-02-26 01:51:00,32.2,30.5,30.32,SSE,157,0.0,0.0,94,0.00,,,0.00,WUHU21636XXSP,2013-02-26 09:51:00,
2013-02-26 01:52:00,32.2,30.5,30.32,SSE,157,0.0,0.0,94,0.00,,,0.00,WUHU21636XXSP,2013-02-26 09:52:00,
2013-02-26 01:55:00,32.2,30.5,30.32,SW,225,0.0,0.0,94,0.00,,,0.00,WUHU21636XXSP,2013-02-26 09:55:00,
2013-02-26 01:56:00,32.2,30.5,30.32,SW,225,0.0,0.0,94,0.00,,,0.00,WUHU21636XXSP,2013-02-26 09:56:00,
2013-02-26 01:57:00,32.4,31.0,30.33,South,180,0.0,0.0,95,0.00,,,0.00,WUHU21636XXSP,2013-02-26 09:57:00,
2013-02-26 02:01:00,32.7,31.3,30.33,South,180,0.0,0.0,95,0.00,,,0.00,WUHU21636XXSP,2013-02-26 10:01:00,
2013-02-26 02:02:00,32.7,31.3,30.32,South,180,0.0,0.0,95,0.00,,,0.00,WUHU21636XXSP,2013-02-26 10:02:00,
2013-02-26 02:06:00,32.9,31.5,30.33,South,180,0.0,0.0,95,0.00,,,0.00,WUHU21636XXSP,2013-02-26 10:06:00,
2013-02-26 02:07:00,32.9,31.5,30.33,South,180,0.0,0.0,95,0.00,,,0.00,WUHU21636XXSP,2013-02-26 10:07:00,
2013-02-26 02:11:00,33.1,31.7,30.33,South,180,0.0,0.0,95,0.00,,,0.00,WUHU21636XXSP,2013-02-26 10:11:00,
2013-02-26 02:12:00,33.1,31.7,30.33,South,180,0.0,0.0,95,0.00,,,0.00,WUHU21636XXSP,2013-02-26 10:12:00,
2013-02-26 02:16:00,32.9,31.5,30.33,South,180,0.0,0.0,95,0.00,,,0.00,WUHU21636XXSP,2013-02-26 10:16:00,
2013-02-26 02:17:00,32.9,31.5,30.33,South,180,0.0,0.0,95,0.00,,,0.00,WUHU21636XXSP,2013-02-26 10:17:00,
2013-02-26 02:18:00,32.9,31.5,30.33,South,180,0.0,0.0,95,0.00,,,0.00,WUHU21636XXSP,2013-02-26 10:18:00,
2013-02-26 02:22:00,32.7,31.3,30.32,South,180,0.0,0.0,95,0.00,,,0.00,WUHU21636XXSP,2013-02-26 10:22:00,
2013-02-26 02:23:00,32.7,31.3,30.33,South,180,0.0,0.0,95,0.00,,,0.00,WUHU21636XXSP,2013-02-26 10:23:00,
2013-02-26 02:27:00,32.5,31.1,30.33,South,180,0.0,0.0,95,0.00,,,0.00,WUHU21636XXSP,2013-02-26 10:27:00,
2013-02-26 02:28:00,32.5,31.1,30.32,South,180,0.0,0.0,95,0.00,,,0.00,WUHU21636XXSP,2013-02-26 10:28:00,
2013-02-26 02:32:00,32.5,31.1,30.32,South,180,0.0,0.0,95,0.00,,,0.00,WUHU21636XXSP,2013-02-26 10:32:00,
2013-02-26 02:33:00,32.5,31.1,30.32,South,180,0.0,0.0,95,0.00,,,0.00,WUHU21636XXSP,2013-02-26 10:33:00,
2013-02-26 02:37:00,32.5,31.1,30.32,SSE,157,0.8,0.8,95,0.00,,,0.00,WUHU21636XXSP,2013-02-26 10:37:00,
2013-02-26 02:38:00,32.9,31.8,30.32,SSE,157,0.8,0.8,96,0.00,,,0.00,WUHU21636XXSP,2013-02-26 10:38:00,
2013-02-26 02:42:00,33.1,32.0,30.33,SSE,157,0.0,0.8,96,0.00,,,0.00,WUHU21636XXSP,2013-02-26 10:42:00,
2013-02-26 02:43:00,33.1,32.0,30.33,SSE,157,0.0,0.8,96,0.00,,,0.00,WUHU21636XXSP,2013-02-26 10:43:00,
2013-02-26 02:47:00,33.1,32.0,30.33,South,180,0.6,0.8,96,0.00,,,0.00,WUHU21636XXSP,2013-02-26 10:47:00,
2013-02-26 02:48:00,33.1,32.0,30.33,South,180,0.6,0.6,96,0.00,,,0.00,WUHU21636XXSP,2013-02-26 10:48:00,
2013-02-26 02:52:00,33.3,32.2,30.33,SSW,202,0.0,0.6,96,0.00,,,0.00,WUHU21636XXSP,2013-02-26 10:52:00,
2013-02-26 02:53:00,33.4,32.3,30.33,SE,135,3.8,3.8,96,0.00,,,0.00,WUHU21636XXSP,2013-02-26 10:53:00,
2013-02-26 02:54:00,33.4,32.3,30.33,SE,135,3.8,3.8,96,0.00,,,0.00,WUHU21636XXSP,2013-02-26 10:54:00,
2013-02-26 02:58:00,33.6,32.5,30.33,SSE,157,0.0,3.8,96,0.00,,,0.00,WUHU21636XXSP,2013-02-26 10:58:00,
2013-02-26 02:59:00,33.6,32.5,30.33,SSE,157,0.0,3.8,96,0.00,,,0.00,WUHU21636XXSP,2013-02-26 10:59:00,
2013-02-26 03:03:00,34.0,32.9,30.33,SSE,157,0.0,3.8,96,0.00,,,0.00,WUHU21636XXSP,2013-02-26 11:03:00,
2013-02-26 03:04:00,34.0,32.9,30.33,SSE,157,0.0,3.8,96,0.00,,,0.00,WUHU21636XXSP,2013-02-26 11:04:00,
2013-02-26 03:08:00,33.6,32.5,30.33,SSW,202,0.0,0.0,96,0.00,,,0.00,WUHU21636XXSP,2013-02-26 11:08:00,
2013-02-26 03:09:00,33.6,32.5,30.33,SSW,202,0.0,0.0,96,0.00,,,0.00,WUHU21636XXSP,2013-02-26 11:09:00,
2013-02-26 03:13:00,33.4,32.3,30.33,SSW,202,0.0,0.0,96,0.00,,,0.00,WUHU21636XXSP,2013-02-26 11:13:00,
2013-02-26 03:14:00,33.4,32.3,30.32,South,180,0.0,0.0,96,0.00,,,0.00,WUHU21636XXSP,2013-02-26 11:14:00,
2013-02-26 03:18:00,33.6,32.5,30.32,ENE,67,0.8,0.8,96,0.00,,,0.00,WUHU21636XXSP,2013-02-26 11:18:00,
2013-02-26 03:19:00,34.0,32.9,30.32,ENE,67,0.8,0.8,96,0.00,,,0.00,WUHU21636XXSP,2013-02-26 11:19:00,
2013-02-26 03:23:00,34.0,32.9,30.33,South,180,0.0,0.8,96,0.00,,,0.00,WUHU21636XXSP,2013-02-26 11:23:00,
2013-02-26 03:24:00,34.0,32.9,30.33,South,180,0.0,0.8,96,0.00,,,0.00,WUHU21636XXSP,2013-02-26 11:24:00,
2013-02-26 03:28:00,34.0,32.9,30.32,South,180,0.0,0.8,96,0.00,,,0.00,WUHU21636XXSP,2013-02-26 11:28:00,
2013-02-26 03:29:00,34.0,32.9,30.32,South,180,0.0,0.0,96,0.00,,,0.00,WUHU21636XXSP,2013-02-26 11:29:00,
2013-02-26 03:33:00,34.0,32.9,30.32,South,180,0.0,0.0,96,0.00,,,0.00,WUHU21636XXSP,2013-02-26 11:33:00,
2013-02-26 03:34:00,33.6,32.5,30.32,South,180,0.0,0.0,96,0.00,,,0.00,WUHU21636XXSP,2013-02-26 11:34:00,
2013-02-26 03:35:00,33.6,32.5,30.32,South,180,0.0,0.0,96,0.00,,,0.00,WUHU21636XXSP,2013-02-26 11:35:00,
2013-02-26 03:39:00,33.4,32.0,30.32,SSW,202,0.0,0.0,95,0.00,,,0.00,WUHU21636XXSP,2013-02-26 11:39:00,
2013-02-26 03:40:00,33.4,32.0,30.33,SSW,202,0.0,0.0,95,0.00,,,0.00,WUHU21636XXSP,2013-02-26 11:40:00,
2013-02-26 03:44:00,33.4,32.3,30.33,South,180,0.0,0.0,96,0.00,,,0.00,WUHU21636XXSP,2013-02-26 11:44:00,
2013-02-26 03:45:00,33.4,32.3,30.33,South,180,0.0,0.0,96,0.00,,,0.00,WUHU21636XXSP,2013-02-26 11:45:00,
2013-02-26 03:49:00,33.4,32.3,30.33,South,180,0.0,0.0,96,0.00,,,0.00,WUHU21636XXSP,2013-02-26 11:49:00,
2013-02-26 03:50:00,33.4,32.3,30.33,South,180,0.0,0.0,96,0.00,,,0.00,WUHU21636XXSP,2013-02-26 11:50:00,
2013-02-26 03:54:00,33.4,32.3,30.33,South,180,0.0,0.0,96,0.00,,,0.00,WUHU21636XXSP,2013-02-26 11:54:00,
2013-02-26 03:55:00,33.4,32.3,30.33,South,180,0.0,0.0,96,0.00,,,0.00,WUHU21636XXSP,2013-02-26 11:55:00,
2013-02-26 03:59:00,33.1,31.7,30.33,South,180,0.0,0.0,95,0.00,,,0.00,WUHU21636XXSP,2013-02-26 11:59:00,
2013-02-26 04:00:00,32.9,31.5,30.33,South,180,0.0,0.0,95,0.00,,,0.00,WUHU21636XXSP,2013-02-26 12:00:00,
2013-02-26 04:05:00,32.7,31.3,30.33,South,180,0.0,0.0,95,0.00,,,0.00,WUHU21636XXSP,2013-02-26 12:05:00,
2013-02-26 04:10:00,32.7,31.3,30.33,South,180,0.0,0.0,95,0.00,,,0.00,WUHU21636XXSP,2013-02-26 12:10:00,
2013-02-26 04:15:00,32.4,31.0,30.33,South,180,0.0,0.0,95,0.00,,,0.00,WUHU21636XXSP,2013-02-26 12:15:00,
2013-02-26 04:16:00,32.4,31.0,30.33,South,180,0.0,0.0,95,0.00,,,0.00,WUHU21636XXSP,2013-02-26 12:16:00,
2013-02-26 04:20:00,32.2,30.8,30.33,South,180,0.0,0.0,95,0.00,,,0.00,WUHU21636XXSP,2013-02-26 12:20:00,
2013-02-26 04:21:00,32.2,30.8,30.33,South,180,0.0,0.0,95,0.00,,,0.00,WUHU21636XXSP,2013-02-26 12:21:00,
2013-02-26 04:25:00,31.8,30.4,30.33,South,180,0.0,0.0,95,0.00,,,0.00,WUHU21636XXSP,2013-02-26 12:25:00,
2013-02-26 04:26:00,31.8,30.4,30.33,South,180,0.0,0.0,95,0.00,,,0.00,WUHU21636XXSP,2013-02-26 12:26:00,
2013-02-26 04:30:00,32.0,30.6,30.33,South,180,0.0,0.0,95,0.00,,,0.00,WUHU21636XXSP,2013-02-26 12:30:00,
2013-02-26 04:31:00,32.0,30.6,30.33,South,180,0.0,0.0,95,0.00,,,0.00,WUHU21636XXSP,2013-02-26 12:31:00,
2013-02-26 04:35:00,32.2,30.8,30.34,South,180,0.0,0.0,95,0.00,,,0.00,WUHU21636XXSP,2013-02-26 12:35:00,
2013-02-26 04:36:00,32.2,30.8,30.34,South,180,0.0,0.0,95,0.00,,,0.00,WUHU21636XXSP,2013-02-26 12:36:00,
2013-02-26 04:40:00,32.5,31.1,30.34,South,180,0.0,0.0,95,0.00,,,0.00,WUHU21636XXSP,2013-02-26 12:40:00,
2013-02-26 04:41:00,32.5,31.1,30.34,South,180,0.0,0.0,95,0.00,,,0.00,WUHU21636XXSP,2013-02-26 12:41:00,
2013-02-26 04:45:00,32.5,31.1,30.34,South,180,0.0,0.0,95,0.00,,,0.00,WUHU21636XXSP,2013-02-26 12:45:00,
2013-02-26 04:46:00,32.5,31.1,30.34,South,180,0.0,0.0,95,0.00,,,0.00,WUHU21636XXSP,2013-02-26 12:46:00,
2013-02-26 04:50:00,32.5,31.1,30.33,SSE,157,0.0,0.0,95,0.00,,,0.00,WUHU21636XXSP,2013-02-26 12:50:00,
2013-02-26 04:51:00,32.5,31.1,30.33,SSE,157,0.0,0.0,95,0.00,,,0.00,WUHU21636XXSP,2013-02-26 12:51:00,
2013-02-26 04:55:00,32.5,31.1,30.33,SSE,157,0.0,0.0,95,0.00,,,0.00,WUHU21636XXSP,2013-02-26 12:55:00,
2013-02-26 04:56:00,32.4,31.0,30.33,SSE,157,0.0,0.0,95,0.00,,,0.00,WUHU21636XXSP,2013-02-26 12:56:00,
2013-02-26 04:57:00,32.4,31.0,30.33,SSE,157,0.0,0.0,95,0.00,,,0.00,WUHU21636XXSP,2013-02-26 12:57:00,
2013-02-26 05:00:00,32.2,31.1,30.33,SSE,157,0.0,0.0,96,0.00,,,0.00,WUHU21636XXSP,2013-02-26 13:00:00,
2013-02-26 05:01:00,32.2,31.1,30.33,SSE,157,0.0,0.0,96,0.00,,,0.00,WUHU21636XXSP,2013-02-26 13:01:00,
2013-02-26 05:02:00,32.2,31.1,30.33,SSE,157,0.0,0.0,96,0.00,,,0.00,WUHU21636XXSP,2013-02-26 13:02:00,
2013-02-26 05:05:00,32.2,31.1,30.33,SSE,157,0.0,0.0,96,0.00,,,0.00,WUHU21636XXSP,2013-02-26 13:05:00,
2013-02-26 05:06:00,32.2,31.1,30.33,SSE,157,0.0,0.0,96,0.00,,,0.00,WUHU21636XXSP,2013-02-26 13:06:00,
2013-02-26 05:07:00,32.2,31.1,30.33,SSE,157,0.0,0.0,96,0.00,,,0.00,WUHU21636XXSP,2013-02-26 13:07:00,
2013-02-26 05:10:00,32.2,31.1,30.33,SSE,157,0.0,0.0,96,0.00,,,0.00,WUHU21636XXSP,2013-02-26 13:10:00,
2013-02-26 05:11:00,32.0,30.9,30.33,SSE,157,0.0,0.0,96,0.00,,,0.00,WUHU21636XXSP,2013-02-26 13:11:00,
2013-02-26 05:12:00,32.0,30.9,30.33,SSE,157,0.0,0.0,96,0.00,,,0.00,WUHU21636XXSP,2013-02-26 13:12:00,
2013-02-26 05:15:00,32.0,30.9,30.33,SSE,157,0.0,0.0,96,0.00,,,0.00,WUHU21636XXSP,2013-02-26 13:15:00,
2013-02-26 05:16:00,32.0,30.9,30.33,SSE,157,0.0,0.0,96,0.00,,,0.00,WUHU21636XXSP,2013-02-26 13:16:00,
2013-02-26 05:17:00,31.8,30.7,30.33,SSE,157,0.0,0.0,96,0.00,,,0.00,WUHU21636XXSP,2013-02-26 13:17:00,
2013-02-26 05:21:00,31.8,30.7,30.33,SSE,157,0.0,0.0,96,0.00,,,0.00,WUHU21636XXSP,2013-02-26 13:21:00,
2013-02-26 05:22:00,31.8,30.7,30.33,SSE,157,0.0,0.0,96,0.00,,,0.00,WUHU21636XXSP,2013-02-26 13:22:00,
2013-02-26 05:23:00,31.8,30.7,30.33,SSE,157,0.0,0.0,96,0.00,,,0.00,WUHU21636XXSP,2013-02-26 13:23:00,
2013-02-26 05:26:00,31.6,30.5,30.33,SSE,157,0.0,0.0,96,0.00,,,0.00,WUHU21636XXSP,2013-02-26 13:26:00,
2013-02-26 05:27:00,31.6,30.5,30.33,SSE,157,0.0,0.0,96,0.00,,,0.00,WUHU21636XXSP,2013-02-26 13:27:00,
2013-02-26 05:28:00,31.6,30.5,30.33,SSE,157,0.0,0.0,96,0.00,,,0.00,WUHU21636XXSP,2013-02-26 13:28:00,
2013-02-26 05:31:00,31.6,30.5,30.33,SSE,157,0.0,0.0,96,0.00,,,0.00,WUHU21636XXSP,2013-02-26 13:31:00,
2013-02-26 05:32:00,31.6,30.5,30.33,SSE,157,0.0,0.0,96,0.00,,,0.00,WUHU21636XXSP,2013-02-26 13:32:00,
2013-02-26 05:33:00,31.6,30.5,30.33,SSE,157,0.0,0.0,96,0.00,,,0.00,WUHU21636XXSP,2013-02-26 13:33:00,
2013-02-26 05:36:00,31.6,30.5,30.33,SSE,157,0.0,0.0,96,0.00,,,0.00,WUHU21636XXSP,2013-02-26 13:36:00,
2013-02-26 05:37:00,31.6,30.5,30.33,SSE,157,0.0,0.0,96,0.00,,,0.00,WUHU21636XXSP,2013-02-26 13:37:00,
2013-02-26 05:38:00,31.6,30.5,30.33,SSE,157,0.0,0.0,96,0.00,,,0.00,WUHU21636XXSP,2013-02-26 13:38:00,
2013-02-26 05:41:00,31.6,30.5,30.33,SSE,157,0.0,0.0,96,0.00,,,0.00,WUHU21636XXSP,2013-02-26 13:41:00,
2013-02-26 05:42:00,31.6,30.5,30.34,SSE,157,0.0,0.0,96,0.00,,,0.00,WUHU21636XXSP,2013-02-26 13:42:00,
2013-02-26 05:43:00,31.6,30.5,30.34,SSE,157,0.0,0.0,96,0.00,,,0.00,WUHU21636XXSP,2013-02-26 13:43:00,
2013-02-26 05:47:00,31.6,30.5,30.34,SSE,157,0.0,0.0,96,0.00,,,0.00,WUHU21636XXSP,2013-02-26 13:47:00,
2013-02-26 05:48:00,31.6,30.5,30.34,SSE,157,0.0,0.0,96,0.00,,,0.00,WUHU21636XXSP,2013-02-26 13:48:00,
2013-02-26 05:49:00,31.6,30.5,30.33,SSE,157,0.0,0.0,96,0.00,,,0.00,WUHU21636XXSP,2013-02-26 13:49:00,
2013-02-26 05:52:00,31.8,30.7,30.33,SSE,157,0.0,0.0,96,0.00,,,0.00,WUHU21636XXSP,2013-02-26 13:52:00,
2013-02-26 05:53:00,31.8,30.7,30.33,SSE,157,0.0,0.0,96,0.00,,,0.00,WUHU21636XXSP,2013-02-26 13:53:00,
2013-02-26 05:54:00,31.8,30.7,30.33,SSE,157,0.0,0.0,96,0.00,,,0.00,WUHU21636XXSP,2013-02-26 13:54:00,
2013-02-26 05:57:00,31.6,30.5,30.33,SSE,157,0.0,0.0,96,0.00,,,0.00,WUHU21636XXSP,2013-02-26 13:57:00,
2013-02-26 05:58:00,31.6,30.5,30.33,SSE,157,0.0,0.0,96,0.00,,,0.00,WUHU21636XXSP,2013-02-26 13:58:00,
2013-02-26 05:59:00,31.6,30.5,30.33,SSE,157,0.0,0.0,96,0.00,,,0.00,WUHU21636XXSP,2013-02-26 13:59:00,
2013-02-26 06:02:00,31.6,30.5,30.33,SSE,157,0.0,0.0,96,0.00,,,0.00,WUHU21636XXSP,2013-02-26 14:02:00,
2013-02-26 06:04:00,31.6,30.5,30.33,SSE,157,0.0,0.0,96,0.00,,,0.00,WUHU21636XXSP,2013-02-26 14:04:00,
2013-02-26 06:07:00,31.6,30.5,30.33,SSE,157,0.0,0.0,96,0.00,,,0.00,WUHU21636XXSP,2013-02-26 14:07:00,
2013-02-26 06:09:00,31.6,30.8,30.33,SSE,157,0.0,0.0,97,0.00,,,0.00,WUHU21636XXSP,2013-02-26 14:09:00,
2013-02-26 06:12:00,31.8,31.0,30.33,SSW,202,0.0,0.0,97,0.00,,,0.00,WUHU21636XXSP,2013-02-26 14:12:00,
2013-02-26 06:14:00,32.0,31.2,30.33,SE,135,0.0,0.0,97,0.00,,,0.00,WUHU21636XXSP,2013-02-26 14:14:00,
2013-02-26 06:17:00,32.4,31.6,30.33,ESE,112,0.0,0.0,97,0.00,,,0.00,WUHU21636XXSP,2013-02-26 14:17:00,
2013-02-26 06:18:00,32.4,31.6,30.33,ESE,112,0.0,0.0,97,0.00,,,0.00,WUHU21636XXSP,2013-02-26 14:18:00,
2013-02-26 06:19:00,32.4,31.6,30.33,ESE,112,0.0,0.0,97,0.00,,,0.00,WUHU21636XXSP,2013-02-26 14:19:00,
2013-02-26 06:23:00,32.5,31.7,30.33,ESE,112,0.0,0.0,97,0.00,,,0.00,WUHU21636XXSP,2013-02-26 14:23:00,
2013-02-26 06:24:00,32.5,31.7,30.33,ESE,112,0.0,0.0,97,0.00,,,0.00,WUHU21636XXSP,2013-02-26 14:24:00,
2013-02-26 06:25:00,32.5,31.7,30.33,ESE,112,0.0,0.0,97,0.00,,,0.00,WUHU21636XXSP,2013-02-26 14:25:00,
2013-02-26 06:28:00,32.5,31.7,30.33,SE,135,0.0,0.0,97,0.00,,,0.00,WUHU21636XXSP,2013-02-26 14:28:00,
2013-02-26 06:29:00,32.5,31.7,30.33,SSE,157,0.0,0.0,97,0.00,,,0.00,WUHU21636XXSP,2013-02-26 14:29:00,
2013-02-26 06:30:00,32.5,31.7,30.33,SSE,157,0.0,0.0,97,0.00,,,0.00,WUHU21636XXSP,2013-02-26 14:30:00,
2013-02-26 06:33:00,32.5,31.7,30.33,SSE,157,0.0,0.0,97,0.00,,,0.00,WUHU21636XXSP,2013-02-26 14:33:00,
2013-02-26 06:34:00,32.5,31.7,30.33,SSE,157,0.0,0.0,97,0.00,,,0.00,WUHU21636XXSP,2013-02-26 14:34:00,
2013-02-26 06:35:00,32.5,31.7,30.33,SSE,157,0.0,0.0,97,0.00,,,0.00,WUHU21636XXSP,2013-02-26 14:35:00,
2013-02-26 06:38:00,32.5,31.7,30.33,SSE,157,0.0,0.0,97,0.00,,,0.00,WUHU21636XXSP,2013-02-26 14:38:00,
2013-02-26 06:39:00,32.5,31.7,30.33,SSE,157,0.0,0.0,97,0.00,,,0.00,WUHU21636XXSP,2013-02-26 14:39:00,
2013-02-26 06:40:00,32.5,31.7,30.33,SSE,157,0.0,0.0,97,0.00,,,0.00,WUHU21636XXSP,2013-02-26 14:40:00,
2013-02-26 06:43:00,32.5,31.7,30.33,SSE,157,0.0,0.0,97,0.00,,,0.00,WUHU21636XXSP,2013-02-26 14:43:00,
2013-02-26 06:45:00,32.7,31.9,30.33,SSE,157,0.0,0.0,97,0.00,,,0.00,WUHU21636XXSP,2013-02-26 14:45:00,
2013-02-26 06:46:00,32.7,31.9,30.33,SSE,157,0.0,0.0,97,0.00,,,0.00,WUHU21636XXSP,2013-02-26 14:46:00,
2013-02-26 06:48:00,32.7,31.9,30.33,SSE,157,0.0,0.0,97,0.00,,,0.00,WUHU21636XXSP,2013-02-26 14:48:00,
2013-02-26 06:50:00,32.7,31.9,30.33,SSE,157,0.0,0.0,97,0.00,,,0.00,WUHU21636XXSP,2013-02-26 14:50:00,
2013-02-26 06:51:00,32.7,31.9,30.33,SSE,157,0.0,0.0,97,0.00,,,0.00,WUHU21636XXSP,2013-02-26 14:51:00,
2013-02-26 06:53:00,32.9,32.1,30.33,SSE,157,0.0,0.0,97,0.00,,,0.00,WUHU21636XXSP,2013-02-26 14:53:00,
2013-02-26 06:55:00,32.9,32.1,30.33,SSE,157,0.0,0.0,97,0.00,,,0.00,WUHU21636XXSP,2013-02-26 14:55:00,
2013-02-26 06:56:00,33.1,32.3,30.33,SSE,157,1.5,1.5,97,0.00,,,0.00,WUHU21636XXSP,2013-02-26 14:56:00,
2013-02-26 06:58:00,33.1,32.3,30.33,SSE,157,1.5,1.5,97,0.00,,,0.00,WUHU21636XXSP,2013-02-26 14:58:00,
2013-02-26 07:00:00,33.3,32.5,30.32,SSE,157,1.5,1.5,97,0.00,,,0.00,WUHU21636XXSP,2013-02-26 15:00:00,
2013-02-26 07:01:00,33.4,32.6,30.32,SSW,202,0.0,1.5,97,0.00,,,0.00,WUHU21636XXSP,2013-02-26 15:01:00,
2013-02-26 07:04:00,33.4,32.6,30.33,SSE,157,2.0,2.0,97,0.00,,,0.00,WUHU21636XXSP,2013-02-26 15:04:00,
2013-02-26 07:05:00,33.4,32.6,30.33,SSE,157,2.0,2.0,97,0.00,,,0.00,WUHU21636XXSP,2013-02-26 15:05:00,
2013-02-26 07:06:00,33.4,32.6,30.33,SSE,157,2.0,2.0,97,0.00,,,0.00,WUHU21636XXSP,2013-02-26 15:06:00,
2013-02-26 07:09:00,33.4,32.6,30.33,SSW,202,0.0,2.0,97,0.00,,,0.00,WUHU21636XXSP,2013-02-26 15:09:00,
2013-02-26 07:10:00,33.6,32.8,30.33,SSE,157,0.0,2.0,97,0.00,,,0.00,WUHU21636XXSP,2013-02-26 15:10:00,
2013-02-26 07:11:00,33.6,32.8,30.33,SSE,157,0.0,2.0,97,0.00,,,0.00,WUHU21636XXSP,2013-02-26 15:11:00,
2013-02-26 07:14:00,34.3,33.5,30.33,SSE,157,0.0,2.0,97,0.00,,,0.00,WUHU21636XXSP,2013-02-26 15:14:00,
2013-02-26 07:15:00,34.3,33.5,30.33,SSE,157,0.0,0.0,97,0.00,,,0.00,WUHU21636XXSP,2013-02-26 15:15:00,
2013-02-26 07:17:00,34.5,33.7,30.33,SE,135,0.0,0.0,97,0.00,,,0.00,WUHU21636XXSP,2013-02-26 15:17:00,
2013-02-26 07:19:00,34.5,33.7,30.33,SSW,202,0.0,0.0,97,0.00,,,0.00,WUHU21636XXSP,2013-02-26 15:19:00,
2013-02-26 07:20:00,34.5,33.7,30.33,SSE,157,0.0,0.0,97,0.00,,,0.00,WUHU21636XXSP,2013-02-26 15:20:00,
2013-02-26 07:21:00,34.5,33.7,30.33,SSE,157,0.0,0.0,97,0.00,,,0.00,WUHU21636XXSP,2013-02-26 15:21:00,
2013-02-26 07:22:00,34.5,33.7,30.33,SSE,157,0.0,0.0,97,0.00,,,0.00,WUHU21636XXSP,2013-02-26 15:22:00,
2013-02-26 07:24:00,34.7,33.9,30.33,SSE,157,0.0,0.0,97,0.00,,,0.00,WUHU21636XXSP,2013-02-26 15:24:00,
2013-02-26 07:25:00,34.7,33.9,30.33,SSE,157,0.0,0.0,97,0.00,,,0.00,WUHU21636XXSP,2013-02-26 15:25:00,
2013-02-26 07:26:00,34.7,33.9,30.33,SSE,157,0.0,0.0,97,0.00,,,0.00,WUHU21636XXSP,2013-02-26 15:26:00,
2013-02-26 07:27:00,34.9,34.1,30.33,East,90,4.2,4.2,97,0.00,,,0.00,WUHU21636XXSP,2013-02-26 15:27:00,
2013-02-26 07:29:00,35.1,34.3,30.33,ESE,106,3.4,4.2,97,0.00,,,0.00,WUHU21636XXSP,2013-02-26 15:29:00,
2013-02-26 07:30:00,35.1,34.3,30.33,South,172,2.1,4.2,97,0.00,,,0.00,WUHU21636XXSP,2013-02-26 15:30:00,
2013-02-26 07:31:00,35.2,34.4,30.33,South,180,2.0,4.2,97,0.00,,,0.00,WUHU21636XXSP,2013-02-26 15:31:00,
2013-02-26 07:32:00,35.2,34.4,30.33,South,180,2.0,4.2,97,0.00,,,0.00,WUHU21636XXSP,2013-02-26 15:32:00,
2013-02-26 07:34:00,35.2,34.4,30.33,South,180,0.0,4.2,97,0.00,,,0.00,WUHU21636XXSP,2013-02-26 15:34:00,
2013-02-26 07:35:00,35.2,34.4,30.33,South,180,0.0,4.2,97,0.00,,,0.00,WUHU21636XXSP,2013-02-26 15:35:00,
2013-02-26 07:36:00,35.2,34.4,30.33,South,180,0.0,4.2,97,0.00,,,0.00,WUHU21636XXSP,2013-02-26 15:36:00,
2013-02-26 07:37:00,35.2,34.4,30.33,South,180,0.0,4.2,97,0.00,,,0.00,WUHU21636XXSP,2013-02-26 15:37:00,
2013-02-26 07:40:00,35.4,34.6,30.33,SSE,157,0.0,2.0,97,0.00,,,0.00,WUHU21636XXSP,2013-02-26 15:40:00,
2013-02-26 07:41:00,35.4,34.6,30.33,SSE,157,0.0,0.0,97,0.00,,,0.00,WUHU21636XXSP,2013-02-26 15:41:00,
2013-02-26 07:42:00,35.4,34.6,30.33,SSE,157,0.0,0.0,97,0.00,,,0.00,WUHU21636XXSP,2013-02-26 15:42:00,
2013-02-26 07:45:00,35.4,34.6,30.33,SSE,157,1.1,1.1,97,0.00,,,0.00,WUHU21636XXSP,2013-02-26 15:45:00,
2013-02-26 07:46:00,35.4,34.6,30.33,SSE,157,1.1,1.1,97,0.00,,,0.00,WUHU21636XXSP,2013-02-26 15:46:00,
2013-02-26 07:47:00,35.8,35.0,30.33,SE,135,3.5,3.5,97,0.00,,,0.00,WUHU21636XXSP,2013-02-26 15:47:00,
2013-02-26 07:50:00,35.8,35.0,30.33,SE,135,3.5,3.5,97,0.00,,,0.00,WUHU21636XXSP,2013-02-26 15:50:00,
2013-02-26 07:51:00,35.8,35.0,30.33,SW,225,0.0,3.5,97,0.00,,,0.00,WUHU21636XXSP,2013-02-26 15:51:00,
2013-02-26 07:52:00,35.8,35.0,30.33,SW,225,0.0,3.5,97,0.00,,,0.00,WUHU21636XXSP,2013-02-26 15:52:00,
2013-02-26 07:55:00,36.0,35.2,30.33,South,180,0.0,3.5,97,0.00,,,0.00,WUHU21636XXSP,2013-02-26 15:55:00,
2013-02-26 07:56:00,36.0,35.2,30.33,South,180,0.0,3.5,97,0.00,,,0.00,WUHU21636XXSP,2013-02-26 15:56:00,
2013-02-26 07:57:00,36.1,35.3,30.34,SSE,157,0.0,3.5,97,0.00,,,0.00,WUHU21636XXSP,2013-02-26 15:57:00,
2013-02-26 08:00:00,36.1,35.3,30.34,SSE,157,0.0,0.0,97,0.00,,,0.00,WUHU21636XXSP,2013-02-26 16:00:00,
2013-02-26 08:01:00,36.1,35.3,30.34,SSE,157,0.0,0.0,97,0.00,,,0.00,WUHU21636XXSP,2013-02-26 16:01:00,
2013-02-26 08:02:00,36.1,35.3,30.33,SSE,157,0.0,0.0,97,0.00,,,0.00,WUHU21636XXSP,2013-02-26 16:02:00,
2013-02-26 08:05:00,36.1,35.3,30.34,SW,225,2.0,2.0,97,0.00,,,0.00,WUHU21636XXSP,2013-02-26 16:05:00,
2013-02-26 08:06:00,36.1,35.3,30.33,SW,225,2.0,2.0,97,0.00,,,0.00,WUHU21636XXSP,2013-02-26 16:06:00,
2013-02-26 08:07:00,36.1,35.3,30.33,SW,225,2.0,2.0,97,0.00,,,0.00,WUHU21636XXSP,2013-02-26 16:07:00,
2013-02-26 08:08:00,36.3,35.5,30.34,SW,225,2.0,2.0,97,0.00,,,0.00,WUHU21636XXSP,2013-02-26 16:08:00,
2013-02-26 08:10:00,36.3,35.5,30.34,North,0,0.0,2.0,97,0.00,,,0.00,WUHU21636XXSP,2013-02-26 16:10:00,
2013-02-26 08:11:00,36.3,35.5,30.34,North,0,0.0,2.0,97,0.00,,,0.00,WUHU21636XXSP,2013-02-26 16:11:00,
2013-02-26 08:13:00,36.5,35.6,30.34,SE,141,3.0,6.4,97,0.00,,,0.00,WUHU21636XXSP,2013-02-26 16:13:00,
2013-02-26 08:15:00,36.5,35.6,30.34,SSE,157,4.4,6.4,97,0.00,,,0.00,WUHU21636XXSP,2013-02-26 16:15:00,
2013-02-26 08:16:00,36.5,35.6,30.34,SSE,157,4.4,6.4,97,0.00,,,0.00,WUHU21636XXSP,2013-02-26 16:16:00,
2013-02-26 08:18:00,36.7,35.6,30.34,SSE,147,3.2,6.4,96,0.00,,,0.00,WUHU21636XXSP,2013-02-26 16:18:00,
2013-02-26 08:20:00,36.7,35.6,30.34,SE,135,2.4,6.4,96,0.00,,,0.00,WUHU21636XXSP,2013-02-26 16:20:00,
2013-02-26 08:21:00,36.7,35.6,30.34,SE,135,0.6,6.4,96,0.00,,,0.00,WUHU21636XXSP,2013-02-26 16:21:00,
2013-02-26 08:23:00,36.7,35.6,30.34,SE,135,0.6,4.4,96,0.00,,,0.00,WUHU21636XXSP,2013-02-26 16:23:00,
2013-02-26 08:26:00,37.0,35.9,30.34,SW,225,0.0,4.4,96,0.00,,,0.00,WUHU21636XXSP,2013-02-26 16:26:00,
2013-02-26 08:27:00,37.0,35.9,30.34,SW,225,0.0,2.4,96,0.00,,,0.00,WUHU21636XXSP,2013-02-26 16:27:00,
2013-02-26 08:28:00,37.2,36.1,30.34,SSW,202,2.4,2.4,96,0.00,,,0.00,WUHU21636XXSP,2013-02-26 16:28:00,
2013-02-26 08:31:00,37.2,36.1,30.34,South,180,3.8,3.8,96,0.00,,,0.00,WUHU21636XXSP,2013-02-26 16:31:00,
2013-02-26 08:32:00,37.2,35.8,30.34,South,180,3.8,3.8,95,0.00,,,0.00,WUHU21636XXSP,2013-02-26 16:32:00,
2013-02-26 08:33:00,37.2,35.8,30.34,South,180,3.8,3.8,95,0.00,,,0.00,WUHU21636XXSP,2013-02-26 16:33:00,
2013-02-26 08:36:00,37.6,36.2,30.34,South,180,0.8,3.8,95,0.00,,,0.00,WUHU21636XXSP,2013-02-26 16:36:00,
2013-02-26 08:37:00,37.6,36.2,30.34,South,180,0.8,3.8,95,0.00,,,0.00,WUHU21636XXSP,2013-02-26 16:37:00,
2013-02-26 08:38:00,37.6,36.2,30.34,South,180,0.8,3.8,95,0.00,,,0.00,WUHU21636XXSP,2013-02-26 16:38:00,
2013-02-26 08:41:00,37.6,35.9,30.34,SE,143,5.2,16.3,94,0.00,,,0.00,WUHU21636XXSP,2013-02-26 16:41:00,
2013-02-26 08:42:00,37.6,35.9,30.34,SSE,154,5.0,16.3,94,0.00,,,0.00,WUHU21636XXSP,2013-02-26 16:42:00,
2013-02-26 08:43:00,37.6,35.6,30.34,SE,135,4.2,16.3,93,0.00,,,0.00,WUHU21636XXSP,2013-02-26 16:43:00,
2013-02-26 08:46:00,37.8,35.8,30.34,South,180,3.5,16.3,93,0.00,,,0.00,WUHU21636XXSP,2013-02-26 16:46:00,
2013-02-26 08:47:00,37.8,35.8,30.34,South,180,3.5,16.3,93,0.00,,,0.00,WUHU21636XXSP,2013-02-26 16:47:00,
2013-02-26 08:48:00,37.8,35.5,30.34,South,171,3.2,16.3,92,0.00,,,0.00,WUHU21636XXSP,2013-02-26 16:48:00,
2013-02-26 08:49:00,37.8,35.5,30.34,SSE,166,3.1,16.3,92,0.00,,,0.00,WUHU21636XXSP,2013-02-26 16:49:00,
2013-02-26 08:51:00,37.6,35.6,30.34,SSW,202,6.2,10.0,93,0.00,,,0.00,WUHU21636XXSP,2013-02-26 16:51:00,
2013-02-26 08:52:00,37.6,35.6,30.34,SSE,168,5.2,10.0,93,0.00,,,0.00,WUHU21636XXSP,2013-02-26 16:52:00,
2013-02-26 08:53:00,37.6,35.6,30.34,East,92,2.8,10.0,93,0.00,,,0.00,WUHU21636XXSP,2013-02-26 16:53:00,
2013-02-26 08:54:00,37.8,35.8,30.34,NE,45,2.0,10.0,93,0.00,,,0.00,WUHU21636XXSP,2013-02-26 16:54:00,
2013-02-26 08:56:00,37.9,35.9,30.34,South,180,3.5,10.0,93,0.00,,,0.00,WUHU21636XXSP,2013-02-26 16:56:00,
2013-02-26 08:57:00,37.9,35.9,30.34,South,180,3.5,10.0,93,0.00,,,0.00,WUHU21636XXSP,2013-02-26 16:57:00,
2013-02-26 08:58:00,38.1,35.8,30.34,ESE,112,8.2,10.0,92,0.00,,,0.00,WUHU21636XXSP,2013-02-26 16:58:00,
2013-02-26 08:59:00,38.1,35.8,30.34,SE,143,5.0,10.0,92,0.00,,,0.00,WUHU21636XXSP,2013-02-26 16:59:00,
2013-02-26 09:02:00,38.3,36.0,30.34,South,180,2.6,9.6,92,0.00,,,0.00,WUHU21636XXSP,2013-02-26 17:02:00,
2013-02-26 09:03:00,38.3,36.0,30.34,South,180,2.6,9.6,92,0.00,,,0.00,WUHU21636XXSP,2013-02-26 17:03:00,
2013-02-26 09:04:00,38.3,36.0,30.34,SSW,197,2.1,9.6,92,0.00,,,0.00,WUHU21636XXSP,2013-02-26 17:04:00,
2013-02-26 09:07:00,38.5,36.2,30.34,South,180,5.3,9.6,92,0.00,,,0.00,WUHU21636XXSP,2013-02-26 17:07:00,
2013-02-26 09:09:00,38.5,36.0,30.34,South,180,7.3,14.0,91,0.00,,,0.00,WUHU21636XXSP,2013-02-26 17:09:00,
2013-02-26 09:12:00,38.5,36.2,30.34,SSW,193,4.5,14.0,92,0.00,,,0.00,WUHU21636XXSP,2013-02-26 17:12:00,
2013-02-26 09:14:00,38.7,36.2,30.34,SSE,157,4.2,14.0,91,0.00,,,0.00,WUHU21636XXSP,2013-02-26 17:14:00,
2013-02-26 09:15:00,38.7,36.2,30.34,SSE,157,4.2,14.0,91,0.00,,,0.00,WUHU21636XXSP,2013-02-26 17:15:00,
2013-02-26 09:17:00,38.8,36.3,30.34,SSE,157,4.2,14.0,91,0.00,,,0.00,WUHU21636XXSP,2013-02-26 17:17:00,
2013-02-26 09:18:00,38.8,36.3,30.34,SSE,157,0.0,14.0,91,0.00,,,0.00,WUHU21636XXSP,2013-02-26 17:18:00,
2013-02-26 09:19:00,38.8,36.3,30.34,SE,142,6.6,15.2,91,0.00,,,0.00,WUHU21636XXSP,2013-02-26 17:19:00,
2013-02-26 09:20:00,38.8,36.3,30.33,SE,141,5.9,15.2,91,0.00,,,0.00,WUHU21636XXSP,2013-02-26 17:20:00,
2013-02-26 09:22:00,38.8,36.3,30.33,SW,225,9.1,15.2,91,0.00,,,0.00,WUHU21636XXSP,2013-02-26 17:22:00,
2013-02-26 09:23:00,39.0,36.5,30.33,South,180,5.1,15.2,91,0.00,,,0.00,WUHU21636XXSP,2013-02-26 17:23:00,
2013-02-26 09:25:00,39.0,36.2,30.33,South,180,7.3,15.2,90,0.00,,,0.00,WUHU21636XXSP,2013-02-26 17:25:00,
2013-02-26 09:28:00,39.2,36.4,30.33,South,180,1.2,15.2,90,0.00,,,0.00,WUHU21636XXSP,2013-02-26 17:28:00,
2013-02-26 09:30:00,39.4,36.8,30.33,SSE,158,5.7,13.1,91,0.00,,,0.00,WUHU21636XXSP,2013-02-26 17:30:00,
2013-02-26 09:31:00,39.4,36.6,30.33,South,180,7.8,13.1,90,0.00,,,0.00,WUHU21636XXSP,2013-02-26 17:31:00,
2013-02-26 09:33:00,39.6,37.0,30.33,SSE,163,4.9,14.5,91,0.00,,,0.00,WUHU21636XXSP,2013-02-26 17:33:00,
2013-02-26 09:36:00,39.7,37.1,30.33,South,180,0.0,14.5,91,0.00,,,0.00,WUHU21636XXSP,2013-02-26 17:36:00,
2013-02-26 09:38:00,39.9,37.3,30.33,SSW,202,2.6,14.5,91,0.00,,,0.00,WUHU21636XXSP,2013-02-26 17:38:00,
2013-02-26 09:41:00,39.9,37.1,30.33,SSW,202,2.6,14.5,90,0.00,,,0.00,WUHU21636XXSP,2013-02-26 17:41:00,
2013-02-26 09:43:00,39.9,37.1,30.33,South,180,0.0,2.6,90,0.00,,,0.00,WUHU21636XXSP,2013-02-26 17:43:00,
2013-02-26 09:44:00,39.9,37.1,30.33,South,180,0.0,2.6,90,0.00,,,0.00,WUHU21636XXSP,2013-02-26 17:44:00,
2013-02-26 09:46:00,40.3,37.4,30.33,West,270,0.0,2.6,90,0.00,,,0.00,WUHU21636XXSP,2013-02-26 17:46:00,
2013-02-26 09:49:00,40.1,37.3,30.33,SSE,153,2.1,10.2,90,0.00,,,0.00,WUHU21636XXSP,2013-02-26 17:49:00,
2013-02-26 09:51:00,40.1,37.3,30.32,South,180,3.1,10.2,90,0.00,,,0.00,WUHU21636XXSP,2013-02-26 17:51:00,
2013-02-26 09:52:00,40.1,37.3,30.33,South,180,3.0,10.2,90,0.00,,,0.00,WUHU21636XXSP,2013-02-26 17:52:00,
2013-02-26 09:53:00,40.1,37.3,30.32,South,180,2.2,10.2,90,0.00,,,0.00,WUHU21636XXSP,2013-02-26 17:53:00,
2013-02-26 09:54:00,40.1,37.3,30.32,South,180,2.2,10.2,90,0.00,,,0.00,WUHU21636XXSP,2013-02-26 17:54:00,
2013-02-26 09:56:00,40.3,37.4,30.32,SE,135,5.8,10.2,90,0.00,,,0.00,WUHU21636XXSP,2013-02-26 17:56:00,
2013-02-26 09:57:00,40.3,37.4,30.32,SE,127,5.5,8.7,90,0.00,,,0.00,WUHU21636XXSP,2013-02-26 17:57:00,
2013-02-26 09:59:00,40.3,37.2,30.32,SE,145,5.7,13.1,89,0.00,,,0.00,WUHU21636XXSP,2013-02-26 17:59:00,
2013-02-26 10:01:00,40.3,37.4,30.33,South,180,2.9,13.1,90,0.00,,,0.00,WUHU21636XXSP,2013-02-26 18:01:00,
2013-02-26 10:02:00,40.3,37.4,30.33,South,180,2.9,13.1,90,0.00,,,0.00,WUHU21636XXSP,2013-02-26 18:02:00,
2013-02-26 10:04:00,40.3,37.2,30.33,SSE,157,0.0,13.1,89,0.00,,,0.00,WUHU21636XXSP,2013-02-26 18:04:00,
2013-02-26 10:07:00,40.3,37.2,30.32,South,180,3.3,13.1,89,0.00,,,0.00,WUHU21636XXSP,2013-02-26 18:07:00,
2013-02-26 10:09:00,40.6,37.7,30.32,SSW,196,0.9,3.3,90,0.00,,,0.00,WUHU21636XXSP,2013-02-26 18:09:00,
2013-02-26 10:12:00,40.6,37.5,30.32,SE,135,6.0,6.7,89,0.00,,,0.00,WUHU21636XXSP,2013-02-26 18:12:00,
2013-02-26 10:14:00,40.6,37.5,30.32,SSE,152,0.8,6.7,89,0.00,,,0.00,WUHU21636XXSP,2013-02-26 18:14:00,
2013-02-26 10:17:00,40.8,37.4,30.32,ESE,112,5.3,6.7,88,0.00,,,0.00,WUHU21636XXSP,2013-02-26 18:17:00,
2013-02-26 10:19:00,41.2,37.5,30.32,SE,135,0.0,6.7,87,0.00,,,0.00,WUHU21636XXSP,2013-02-26 18:19:00,
2013-02-26 10:22:00,41.2,37.8,30.31,ENE,67,3.1,6.4,88,0.00,,,0.00,WUHU21636XXSP,2013-02-26 18:22:00,
2013-02-26 10:24:00,41.5,37.8,30.32,SSE,157,5.5,10.2,87,0.00,,,0.00,WUHU21636XXSP,2013-02-26 18:24:00,
2013-02-26 10:27:00,42.1,38.3,30.32,SSE,157,0.6,10.2,87,0.00,,,0.00,WUHU21636XXSP,2013-02-26 18:27:00,
2013-02-26 10:28:00,42.1,38.3,30.31,SSE,157,0.6,10.2,87,0.00,,,0.00,WUHU21636XXSP,2013-02-26 18:28:00,
2013-02-26 10:29:00,42.1,38.0,30.31,SE,135,5.5,10.2,86,0.00,,,0.00,WUHU21636XXSP,2013-02-26 18:29:00,
2013-02-26 10:30:00,42.1,38.0,30.31,SE,135,5.5,10.2,86,0.00,,,0.00,WUHU21636XXSP,2013-02-26 18:30:00,
2013-02-26 10:32:00,42.4,38.0,30.31,SE,135,5.5,10.2,85,0.00,,,0.00,WUHU21636XXSP,2013-02-26 18:32:00,
2013-02-26 10:33:00,42.4,38.0,30.31,SSE,157,0.0,10.2,85,0.00,,,0.00,WUHU21636XXSP,2013-02-26 18:33:00,
2013-02-26 10:34:00,42.6,38.2,30.31,SE,135,0.0,5.5,85,0.00,,,0.00,WUHU21636XXSP,2013-02-26 18:34:00,
2013-02-26 10:35:00,42.6,38.2,30.31,SE,135,0.0,5.5,85,0.00,,,0.00,WUHU21636XXSP,2013-02-26 18:35:00,
2013-02-26 10:37:00,43.0,37.7,30.31,South,180,7.3,11.8,81,0.00,,,0.00,WUHU21636XXSP,2013-02-26 18:37:00,
2013-02-26 10:38:00,43.0,38.0,30.31,ENE,67,8.0,11.8,82,0.00,,,0.00,WUHU21636XXSP,2013-02-26 18:38:00,
2013-02-26 10:39:00,43.0,37.7,30.31,SE,142,5.6,15.6,81,0.00,,,0.00,WUHU21636XXSP,2013-02-26 18:39:00,
2013-02-26 10:40:00,43.0,37.7,30.31,East,95,4.0,15.6,81,0.00,,,0.00,WUHU21636XXSP,2013-02-26 18:40:00,
2013-02-26 10:42:00,43.0,37.4,30.31,SE,135,2.9,15.6,80,0.00,,,0.00,WUHU21636XXSP,2013-02-26 18:42:00,
2013-02-26 10:43:00,43.0,37.4,30.31,SSE,162,3.6,15.6,80,0.00,,,0.00,WUHU21636XXSP,2013-02-26 18:43:00,
2013-02-26 10:45:00,43.0,37.4,30.31,SSE,157,4.9,15.6,80,0.00,,,0.00,WUHU21636XXSP,2013-02-26 18:45:00,
2013-02-26 10:47:00,42.6,37.0,30.30,SSE,158,2.4,15.6,80,0.00,,,0.00,WUHU21636XXSP,2013-02-26 18:47:00,
2013-02-26 10:48:00,42.6,37.0,30.30,SSE,165,1.8,15.6,80,0.00,,,0.00,WUHU21636XXSP,2013-02-26 18:48:00,
2013-02-26 10:50:00,42.8,37.5,30.30,South,180,1.1,10.2,81,0.00,,,0.00,WUHU21636XXSP,2013-02-26 18:50:00,
2013-02-26 10:52:00,43.0,37.4,30.30,SSE,157,0.8,6.7,80,0.00,,,0.00,WUHU21636XXSP,2013-02-26 18:52:00,
2013-02-26 10:54:00,43.0,37.4,30.30,SSE,157,0.8,6.7,80,0.00,,,0.00,WUHU21636XXSP,2013-02-26 18:54:00,
2013-02-26 10:55:00,42.8,37.2,30.30,SSE,157,6.7,13.1,80,0.00,,,0.00,WUHU21636XXSP,2013-02-26 18:55:00,
2013-02-26 10:58:00,42.8,37.2,30.30,SSE,160,2.4,13.1,80,0.00,,,0.00,WUHU21636XXSP,2013-02-26 18:58:00,
2013-02-26 10:59:00,43.0,37.7,30.30,SSE,157,2.2,13.1,81,0.00,,,0.00,WUHU21636XXSP,2013-02-26 18:59:00,
2013-02-26 11:00:00,42.8,37.5,30.30,SSE,157,2.9,13.1,81,0.00,,,0.00,WUHU21636XXSP,2013-02-26 19:00:00,
2013-02-26 11:03:00,43.0,37.7,30.30,SSE,157,2.9,13.1,81,0.00,,,0.00,WUHU21636XXSP,2013-02-26 19:03:00,
2013-02-26 11:04:00,43.0,37.7,30.30,SSE,157,2.9,13.1,81,0.00,,,0.00,WUHU21636XXSP,2013-02-26 19:04:00,
2013-02-26 11:05:00,42.8,37.2,30.30,SE,135,6.6,11.1,80,0.00,,,0.00,WUHU21636XXSP,2013-02-26 19:05:00,
2013-02-26 11:08:00,42.8,37.2,30.30,SSE,167,6.8,17.8,80,0.00,,,0.00,WUHU21636XXSP,2013-02-26 19:08:00,
2013-02-26 11:10:00,42.6,37.0,30.30,SSE,157,2.9,17.8,80,0.00,,,0.00,WUHU21636XXSP,2013-02-26 19:10:00,
2013-02-26 11:11:00,42.6,37.0,30.30,SSE,157,2.9,17.8,80,0.00,,,0.00,WUHU21636XXSP,2013-02-26 19:11:00,
2013-02-26 11:13:00,42.6,36.7,30.30,SSW,202,4.0,17.8,79,0.00,,,0.00,WUHU21636XXSP,2013-02-26 19:13:00,
2013-02-26 11:15:00,42.6,36.7,30.30,SSW,202,4.0,17.8,79,0.00,,,0.00,WUHU21636XXSP,2013-02-26 19:15:00,
2013-02-26 11:16:00,42.6,36.7,30.30,SSW,202,4.0,17.8,79,0.00,,,0.00,WUHU21636XXSP,2013-02-26 19:16:00,
2013-02-26 11:18:00,42.6,37.0,30.29,SSE,157,2.9,4.0,80,0.00,,,0.00,WUHU21636XXSP,2013-02-26 19:18:00,
2013-02-26 11:20:00,42.6,36.7,30.30,SSE,157,3.1,4.0,79,0.00,,,0.00,WUHU21636XXSP,2013-02-26 19:20:00,
2013-02-26 11:21:00,42.6,37.0,30.30,SSE,157,5.5,6.7,80,0.00,,,0.00,WUHU21636XXSP,2013-02-26 19:21:00,
2013-02-26 11:23:00,42.4,36.8,30.29,South,178,3.3,6.7,80,0.00,,,0.00,WUHU21636XXSP,2013-02-26 19:23:00,
2013-02-26 11:25:00,42.6,37.0,30.29,South,180,3.1,6.7,80,0.00,,,0.00,WUHU21636XXSP,2013-02-26 19:25:00,
2013-02-26 11:26:00,42.6,37.0,30.29,SSE,157,5.5,6.7,80,0.00,,,0.00,WUHU21636XXSP,2013-02-26 19:26:00,
2013-02-26 11:28:00,42.6,37.0,30.30,South,180,2.7,8.0,80,0.00,,,0.00,WUHU21636XXSP,2013-02-26 19:28:00,
2013-02-26 11:30:00,42.6,37.0,30.29,SSE,157,4.9,8.0,80,0.00,,,0.00,WUHU21636XXSP,2013-02-26 19:30:00,
2013-02-26 11:31:00,42.6,37.0,30.29,SSE,157,4.8,8.0,80,0.00,,,0.00,WUHU21636XXSP,2013-02-26 19:31:00,
2013-02-26 11:33:00,42.8,37.2,30.29,SSE,157,2.6,8.0,80,0.00,,,0.00,WUHU21636XXSP,2013-02-26 19:33:00,
2013-02-26 11:35:00,42.8,37.2,30.29,SSE,157,0.8,8.0,80,0.00,,,0.00,WUHU21636XXSP,2013-02-26 19:35:00,
2013-02-26 11:36:00,42.8,37.2,30.29,SSE,157,0.8,8.0,80,0.00,,,0.00,WUHU21636XXSP,2013-02-26 19:36:00,
2013-02-26 11:38:00,42.8,37.2,30.29,SSE,157,1.3,4.9,80,0.00,,,0.00,WUHU21636XXSP,2013-02-26 19:38:00,
2013-02-26 11:40:00,42.6,36.7,30.29,SSE,157,3.1,4.9,79,0.00,,,0.00,WUHU21636XXSP,2013-02-26 19:40:00,
2013-02-26 11:41:00,42.6,36.7,30.29,SSE,157,3.1,3.1,79,0.00,,,0.00,WUHU21636XXSP,2013-02-26 19:41:00,
2013-02-26 11:44:00,42.6,37.0,30.29,SE,135,2.2,3.1,80,0.00,,,0.00,WUHU21636XXSP,2013-02-26 19:44:00,
2013-02-26 11:45:00,42.6,37.3,30.29,SSE,157,3.5,3.5,81,0.00,,,0.00,WUHU21636XXSP,2013-02-26 19:45:00,
2013-02-26 11:46:00,42.6,37.0,30.29,SSE,157,3.5,3.5,80,0.00,,,0.00,WUHU21636XXSP,2013-02-26 19:46:00,
2013-02-26 11:49:00,42.8,37.2,30.29,SSW,201,8.6,9.8,80,0.00,,,0.00,WUHU21636XXSP,2013-02-26 19:49:00,
2013-02-26 11:50:00,42.8,37.2,30.29,South,186,4.0,9.8,80,0.00,,,0.00,WUHU21636XXSP,2013-02-26 19:50:00,
2013-02-26 11:51:00,42.8,37.2,30.29,South,180,2.9,9.8,80,0.00,,,0.00,WUHU21636XXSP,2013-02-26 19:51:00,
2013-02-26 11:52:00,42.8,37.2,30.29,SSW,202,6.7,9.8,80,0.00,,,0.00,WUHU21636XXSP,2013-02-26 19:52:00,
2013-02-26 11:54:00,42.6,37.0,30.29,SSW,193,5.1,9.8,80,0.00,,,0.00,WUHU21636XXSP,2013-02-26 19:54:00,
2013-02-26 11:55:00,42.8,37.2,30.29,SSW,212,1.5,9.8,80,0.00,,,0.00,WUHU21636XXSP,2013-02-26 19:55:00,
2013-02-26 11:56:00,42.6,37.0,30.29,South,180,0.6,9.8,80,0.00,,,0.00,WUHU21636XXSP,2013-02-26 19:56:00,
2013-02-26 11:57:00,42.6,37.0,30.29,South,180,0.6,9.8,80,0.00,,,0.00,WUHU21636XXSP,2013-02-26 19:57:00,
2013-02-26 11:59:00,42.6,37.0,30.29,West,270,1.3,9.3,80,0.00,,,0.00,WUHU21636XXSP,2013-02-26 19:59:00,
2013-02-26 12:00:00,42.6,37.0,30.29,West,270,1.3,9.3,80,0.00,,,0.00,WUHU21636XXSP,2013-02-26 20:00:00,
2013-02-26 12:01:00,42.8,37.2,30.29,West,270,1.3,9.3,80,0.00,,,0.00,WUHU21636XXSP,2013-02-26 20:01:00,
2013-02-26 12:02:00,42.8,37.2,30.29,West,270,1.3,9.3,80,0.00,,,0.00,WUHU21636XXSP,2013-02-26 20:02:00,
2013-02-26 12:04:00,43.0,37.4,30.29,East,90,2.6,3.8,80,0.00,,,0.00,WUHU21636XXSP,2013-02-26 20:04:00,
2013-02-26 12:06:00,43.0,37.4,30.29,ESE,121,1.9,2.6,80,0.00,,,0.00,WUHU21636XXSP,2013-02-26 20:06:00,
2013-02-26 12:07:00,43.0,37.4,30.29,SSE,157,1.5,2.6,80,0.00,,,0.00,WUHU21636XXSP,2013-02-26 20:07:00,
2013-02-26 12:09:00,43.2,37.3,30.29,SE,142,3.4,7.3,79,0.00,,,0.00,WUHU21636XXSP,2013-02-26 20:09:00,
2013-02-26 12:11:00,43.3,37.4,30.29,SE,135,5.1,7.3,79,0.00,,,0.00,WUHU21636XXSP,2013-02-26 20:11:00,
2013-02-26 12:12:00,43.3,37.0,30.29,SE,135,5.0,7.3,78,0.00,,,0.00,WUHU21636XXSP,2013-02-26 20:12:00,
2013-02-26 12:14:00,43.3,37.0,30.28,SE,146,2.5,7.3,78,0.00,,,0.00,WUHU21636XXSP,2013-02-26 20:14:00,
2013-02-26 12:16:00,43.5,37.2,30.28,SE,143,3.9,8.2,78,0.00,,,0.00,WUHU21636XXSP,2013-02-26 20:16:00,
2013-02-26 12:18:00,43.5,37.2,30.28,SSE,157,3.8,8.2,78,0.00,,,0.00,WUHU21636XXSP,2013-02-26 20:18:00,
2013-02-26 12:19:00,43.5,36.9,30.28,South,180,4.9,8.2,77,0.00,,,0.00,WUHU21636XXSP,2013-02-26 20:19:00,
2013-02-26 12:21:00,43.7,37.4,30.28,SSE,161,5.0,9.1,78,0.00,,,0.00,WUHU21636XXSP,2013-02-26 20:21:00,
2013-02-26 12:22:00,43.7,37.4,30.28,SSE,161,4.4,9.1,78,0.00,,,0.00,WUHU21636XXSP,2013-02-26 20:22:00,
2013-02-26 12:23:00,43.7,37.4,30.28,SSW,202,2.0,9.1,78,0.00,,,0.00,WUHU21636XXSP,2013-02-26 20:23:00,
2013-02-26 12:24:00,43.9,37.3,30.28,SSE,157,3.3,9.1,77,0.00,,,0.00,WUHU21636XXSP,2013-02-26 20:24:00,
2013-02-26 12:26:00,43.9,36.9,30.28,SE,141,3.0,9.1,76,0.00,,,0.00,WUHU21636XXSP,2013-02-26 20:26:00,
2013-02-26 12:27:00,43.9,36.9,30.28,SE,135,2.9,9.1,76,0.00,,,0.00,WUHU21636XXSP,2013-02-26 20:27:00,
2013-02-26 12:28:00,43.7,37.1,30.28,SE,135,2.9,9.1,77,0.00,,,0.00,WUHU21636XXSP,2013-02-26 20:28:00,
2013-02-26 12:30:00,43.9,37.3,30.28,East,90,0.0,9.1,77,0.00,,,0.00,WUHU21636XXSP,2013-02-26 20:30:00,
2013-02-26 12:31:00,43.9,37.3,30.28,WSW,247,0.0,3.3,77,0.00,,,0.00,WUHU21636XXSP,2013-02-26 20:31:00,
2013-02-26 12:32:00,43.9,37.3,30.28,WSW,247,0.0,3.3,77,0.00,,,0.00,WUHU21636XXSP,2013-02-26 20:32:00,
2013-02-26 12:33:00,43.9,37.3,30.28,WSW,247,0.0,3.3,77,0.00,,,0.00,WUHU21636XXSP,2013-02-26 20:33:00,
2013-02-26 12:35:00,43.9,37.3,30.28,SE,135,0.0,2.9,77,0.00,,,0.00,WUHU21636XXSP,2013-02-26 20:35:00,
2013-02-26 12:37:00,43.9,37.3,30.28,SSE,157,1.7,2.9,77,0.00,,,0.00,WUHU21636XXSP,2013-02-26 20:37:00,
2013-02-26 12:38:00,43.9,37.3,30.28,SSE,157,1.7,1.7,77,0.00,,,0.00,WUHU21636XXSP,2013-02-26 20:38:00,
2013-02-26 12:40:00,43.9,37.3,30.28,SE,135,0.4,1.7,77,0.00,,,0.00,WUHU21636XXSP,2013-02-26 20:40:00,
2013-02-26 12:42:00,43.9,37.3,30.27,SSE,157,2.4,2.4,77,0.00,,,0.00,WUHU21636XXSP,2013-02-26 20:42:00,
2013-02-26 12:43:00,44.2,37.6,30.28,SSE,157,2.4,2.4,77,0.00,,,0.00,WUHU21636XXSP,2013-02-26 20:43:00,
2013-02-26 12:45:00,44.2,37.6,30.28,SE,135,0.0,2.4,77,0.00,,,0.00,WUHU21636XXSP,2013-02-26 20:45:00,
2013-02-26 12:47:00,44.2,37.6,30.28,SW,225,0.0,2.4,77,0.00,,,0.00,WUHU21636XXSP,2013-02-26 20:47:00,
2013-02-26 12:48:00,44.2,37.6,30.28,SW,225,0.0,2.4,77,0.00,,,0.00,WUHU21636XXSP,2013-02-26 20:48:00,
2013-02-26 12:50:00,44.2,37.6,30.28,South,180,2.2,2.4,77,0.00,,,0.00,WUHU21636XXSP,2013-02-26 20:50:00,
2013-02-26 12:52:00,44.2,37.2,30.27,South,180,4.0,4.0,76,0.00,,,0.00,WUHU21636XXSP,2013-02-26 20:52:00,
2013-02-26 12:53:00,44.2,37.2,30.27,South,180,4.0,4.0,76,0.00,,,0.00,WUHU21636XXSP,2013-02-26 20:53:00,
2013-02-26 12:55:00,44.2,37.6,30.28,South,180,0.4,4.0,77,0.00,,,0.00,WUHU21636XXSP,2013-02-26 20:55:00,
2013-02-26 12:57:00,44.2,37.6,30.27,South,180,0.4,4.0,77,0.00,,,0.00,WUHU21636XXSP,2013-02-26 20:57:00,
2013-02-26 12:58:00,44.2,37.2,30.27,WSW,247,0.0,4.0,76,0.00,,,0.00,WUHU21636XXSP,2013-02-26 20:58:00,
2013-02-26 13:00:00,44.2,37.2,30.27,South,180,2.0,4.0,76,0.00,,,0.00,WUHU21636XXSP,2013-02-26 21:00:00,
2013-02-26 13:02:00,44.2,37.2,30.27,South,180,4.2,4.2,76,0.00,,,0.00,WUHU21636XXSP,2013-02-26 21:02:00,
2013-02-26 13:03:00,44.2,37.2,30.27,South,180,4.2,4.2,76,0.00,,,0.00,WUHU21636XXSP,2013-02-26 21:03:00,
2013-02-26 13:04:00,44.2,36.9,30.27,South,180,4.2,4.2,75,0.00,,,0.00,WUHU21636XXSP,2013-02-26 21:04:00,
2013-02-26 13:05:00,44.2,36.9,30.27,South,180,4.2,4.2,75,0.00,,,0.00,WUHU21636XXSP,2013-02-26 21:05:00,
2013-02-26 13:07:00,44.2,37.2,30.27,SSE,157,4.4,4.4,76,0.00,,,0.00,WUHU21636XXSP,2013-02-26 21:07:00,
2013-02-26 13:08:00,44.2,36.9,30.27,SSE,157,4.4,4.4,75,0.00,,,0.00,WUHU21636XXSP,2013-02-26 21:08:00,
2013-02-26 13:10:00,44.2,36.9,30.27,SSE,157,4.4,4.4,75,0.00,,,0.00,WUHU21636XXSP,2013-02-26 21:10:00,
2013-02-26 13:12:00,44.2,36.9,30.27,SE,146,3.2,7.6,75,0.00,,,0.00,WUHU21636XXSP,2013-02-26 21:12:00,
2013-02-26 13:13:00,44.2,36.9,30.27,SSE,157,2.2,7.6,75,0.00,,,0.00,WUHU21636XXSP,2013-02-26 21:13:00,
2013-02-26 13:15:00,44.2,36.6,30.27,SE,135,3.3,7.6,74,0.00,,,0.00,WUHU21636XXSP,2013-02-26 21:15:00,
2013-02-26 13:18:00,44.1,36.1,30.27,SE,135,3.3,7.6,73,0.00,,,0.00,WUHU21636XXSP,2013-02-26 21:18:00,
2013-02-26 13:20:00,44.1,36.1,30.27,SSW,202,3.8,7.6,73,0.00,,,0.00,WUHU21636XXSP,2013-02-26 21:20:00,
2013-02-26 13:23:00,44.2,36.9,30.26,SSE,157,2.2,3.8,75,0.00,,,0.00,WUHU21636XXSP,2013-02-26 21:23:00,
2013-02-26 13:25:00,44.2,36.6,30.26,SSE,157,2.2,3.8,74,0.00,,,0.00,WUHU21636XXSP,2013-02-26 21:25:00,
2013-02-26 13:26:00,44.2,36.6,30.26,SSE,157,2.2,3.8,74,0.00,,,0.00,WUHU21636XXSP,2013-02-26 21:26:00,
2013-02-26 13:28:00,44.2,36.6,30.26,SE,135,2.4,3.8,74,0.00,,,0.00,WUHU21636XXSP,2013-02-26 21:28:00,
2013-02-26 13:30:00,44.2,36.6,30.26,SE,135,3.5,3.8,74,0.00,,,0.00,WUHU21636XXSP,2013-02-26 21:30:00,
2013-02-26 13:31:00,44.2,36.6,30.26,SE,135,3.5,3.5,74,0.00,,,0.00,WUHU21636XXSP,2013-02-26 21:31:00,
2013-02-26 13:33:00,44.4,37.1,30.26,ESE,112,2.8,3.5,75,0.00,,,0.00,WUHU21636XXSP,2013-02-26 21:33:00,
2013-02-26 13:35:00,44.4,37.1,30.26,South,180,0.2,3.5,75,0.00,,,0.00,WUHU21636XXSP,2013-02-26 21:35:00,
2013-02-26 13:36:00,44.4,36.8,30.26,South,180,0.2,3.5,74,0.00,,,0.00,WUHU21636XXSP,2013-02-26 21:36:00,
2013-02-26 13:38:00,44.4,36.4,30.26,WNW,292,0.0,3.5,73,0.00,,,0.00,WUHU21636XXSP,2013-02-26 21:38:00,
2013-02-26 13:40:00,44.4,36.4,30.26,SE,135,3.1,3.5,73,0.00,,,0.00,WUHU21636XXSP,2013-02-26 21:40:00,
2013-02-26 13:41:00,44.4,36.4,30.26,SE,135,3.1,3.1,73,0.00,,,0.00,WUHU21636XXSP,2013-02-26 21:41:00,
2013-02-26 13:43:00,44.4,36.4,30.26,SE,135,3.1,3.1,73,0.00,,,0.00,WUHU21636XXSP,2013-02-26 21:43:00,
2013-02-26 13:46:00,44.8,36.8,30.25,SSW,202,3.3,3.3,73,0.00,,,0.00,WUHU21636XXSP,2013-02-26 21:46:00,
2013-02-26 13:48:00,44.6,36.2,30.25,SSE,157,1.0,6.4,72,0.00,,,0.00,WUHU21636XXSP,2013-02-26 21:48:00,
2013-02-26 13:51:00,44.8,36.4,30.25,SSE,157,0.0,6.4,72,0.00,,,0.00,WUHU21636XXSP,2013-02-26 21:51:00,
2013-02-26 13:53:00,44.8,36.1,30.25,ESE,112,4.6,6.4,71,0.00,,,0.00,WUHU21636XXSP,2013-02-26 21:53:00,
2013-02-26 13:56:00,44.8,35.3,30.25,SE,135,0.0,6.4,69,0.00,,,0.00,WUHU21636XXSP,2013-02-26 21:56:00,
2013-02-26 13:59:00,44.4,35.0,30.25,South,180,0.0,4.6,69,0.00,,,0.00,WUHU21636XXSP,2013-02-26 21:59:00,
2013-02-26 14:01:00,44.4,35.7,30.25,SSW,202,2.6,4.6,71,0.00,,,0.00,WUHU21636XXSP,2013-02-26 22:01:00,
2013-02-26 14:04:00,44.4,35.7,30.25,SSW,202,2.6,2.6,71,0.00,,,0.00,WUHU21636XXSP,2013-02-26 22:04:00,
2013-02-26 14:06:00,44.6,35.9,30.25,North,0,0.0,2.6,71,0.00,,,0.00,WUHU21636XXSP,2013-02-26 22:06:00,
2013-02-26 14:09:00,44.8,35.7,30.25,SE,135,0.0,2.6,70,0.00,,,0.00,WUHU21636XXSP,2013-02-26 22:09:00,
2013-02-26 14:11:00,44.8,35.7,30.25,SSE,157,7.1,10.2,70,0.00,,,0.00,WUHU21636XXSP,2013-02-26 22:11:00,
2013-02-26 14:14:00,44.8,35.7,30.25,SSW,202,4.0,10.2,70,0.00,,,0.00,WUHU21636XXSP,2013-02-26 22:14:00,
2013-02-26 14:16:00,44.8,36.1,30.25,SSW,202,4.0,10.2,71,0.00,,,0.00,WUHU21636XXSP,2013-02-26 22:16:00,
2013-02-26 14:19:00,44.8,35.7,30.25,SSE,157,2.2,10.2,70,0.00,,,0.00,WUHU21636XXSP,2013-02-26 22:19:00,
2013-02-26 14:21:00,44.8,36.1,30.25,SSE,157,2.2,7.1,71,0.00,,,0.00,WUHU21636XXSP,2013-02-26 22:21:00,
2013-02-26 14:22:00,44.8,36.1,30.25,SSE,157,2.2,4.0,71,0.00,,,0.00,WUHU21636XXSP,2013-02-26 22:22:00,
2013-02-26 14:24:00,45.0,36.3,30.25,South,180,3.3,4.0,71,0.00,,,0.00,WUHU21636XXSP,2013-02-26 22:24:00,
2013-02-26 14:26:00,45.0,35.9,30.25,ESE,112,0.0,3.3,70,0.00,,,0.00,WUHU21636XXSP,2013-02-26 22:26:00,
2013-02-26 14:27:00,45.0,36.6,30.25,NE,45,0.0,3.3,72,0.00,,,0.00,WUHU21636XXSP,2013-02-26 22:27:00,
2013-02-26 14:29:00,45.0,36.3,30.25,South,180,2.0,3.3,71,0.00,,,0.00,WUHU21636XXSP,2013-02-26 22:29:00,
2013-02-26 14:32:00,45.0,36.6,30.25,SE,135,2.9,3.3,72,0.00,,,0.00,WUHU21636XXSP,2013-02-26 22:32:00,
2013-02-26 14:34:00,45.0,36.6,30.25,SSE,157,4.0,4.0,72,0.00,,,0.00,WUHU21636XXSP,2013-02-26 22:34:00,
2013-02-26 14:37:00,45.0,36.3,30.25,SE,137,3.5,6.7,71,0.00,,,0.00,WUHU21636XXSP,2013-02-26 22:37:00,
2013-02-26 14:39:00,45.0,36.3,30.25,ESE,112,2.2,6.7,71,0.00,,,0.00,WUHU21636XXSP,2013-02-26 22:39:00,
2013-02-26 14:40:00,45.0,36.3,30.25,ESE,112,2.2,6.7,71,0.00,,,0.00,WUHU21636XXSP,2013-02-26 22:40:00,
2013-02-26 14:42:00,45.0,36.6,30.25,SE,135,3.5,11.4,72,0.00,,,0.00,WUHU21636XXSP,2013-02-26 22:42:00,
2013-02-26 14:43:00,45.0,36.6,30.25,SE,135,3.3,11.4,72,0.00,,,0.00,WUHU21636XXSP,2013-02-26 22:43:00,
2013-02-26 14:44:00,45.0,36.6,30.25,NW,315,2.6,11.4,72,0.00,,,0.00,WUHU21636XXSP,2013-02-26 22:44:00,
2013-02-26 14:45:00,45.0,36.6,30.25,NW,315,2.6,11.4,72,0.00,,,0.00,WUHU21636XXSP,2013-02-26 22:45:00,
2013-02-26 14:47:00,45.0,36.6,30.25,NW,315,2.6,11.4,72,0.00,,,0.00,WUHU21636XXSP,2013-02-26 22:47:00,
2013-02-26 14:48:00,45.0,36.6,30.25,SW,225,0.0,11.4,72,0.00,,,0.00,WUHU21636XXSP,2013-02-26 22:48:00,
2013-02-26 14:49:00,45.1,36.7,30.24,SSW,202,0.0,11.4,72,0.00,,,0.00,WUHU21636XXSP,2013-02-26 22:49:00,
2013-02-26 14:50:00,45.1,36.7,30.24,SSW,202,0.0,11.4,72,0.00,,,0.00,WUHU21636XXSP,2013-02-26 22:50:00,
2013-02-26 14:52:00,45.0,36.3,30.25,SSE,157,0.0,2.6,71,0.00,,,0.00,WUHU21636XXSP,2013-02-26 22:52:00,
2013-02-26 14:53:00,45.0,36.3,30.25,South,180,0.0,2.6,71,0.00,,,0.00,WUHU21636XXSP,2013-02-26 22:53:00,
2013-02-26 14:55:00,45.0,36.3,30.25,South,180,0.0,2.6,71,0.00,,,0.00,WUHU21636XXSP,2013-02-26 22:55:00,
2013-02-26 14:58:00,45.0,36.3,30.24,SSE,157,0.0,0.0,71,0.00,,,0.00,WUHU21636XXSP,2013-02-26 22:58:00,
2013-02-26 15:00:00,44.8,36.1,30.24,SSE,157,0.0,0.0,71,0.00,,,0.00,WUHU21636XXSP,2013-02-26 23:00:00,
2013-02-26 15:03:00,44.8,36.4,30.24,SSE,157,0.0,0.0,72,0.00,,,0.00,WUHU21636XXSP,2013-02-26 23:03:00,
2013-02-26 15:04:00,45.0,36.6,30.24,SSE,157,0.4,0.4,72,0.00,,,0.00,WUHU21636XXSP,2013-02-26 23:04:00,
2013-02-26 15:05:00,45.0,36.6,30.24,SSE,157,0.4,0.4,72,0.00,,,0.00,WUHU21636XXSP,2013-02-26 23:05:00,
2013-02-26 15:08:00,45.0,36.6,30.24,South,180,1.5,1.5,72,0.00,,,0.00,WUHU21636XXSP,2013-02-26 23:08:00,
2013-02-26 15:09:00,45.0,36.6,30.24,South,180,1.5,1.5,72,0.00,,,0.00,WUHU21636XXSP,2013-02-26 23:09:00,
2013-02-26 15:10:00,45.0,36.6,30.24,NW,315,0.0,1.5,72,0.00,,,0.00,WUHU21636XXSP,2013-02-26 23:10:00,
2013-02-26 15:11:00,45.0,36.6,30.24,NW,315,0.0,1.5,72,0.00,,,0.00,WUHU21636XXSP,2013-02-26 23:11:00,
2013-02-26 15:13:00,45.0,37.0,30.24,SSE,157,0.6,1.5,73,0.00,,,0.00,WUHU21636XXSP,2013-02-26 23:13:00,
2013-02-26 15:14:00,45.1,37.1,30.24,South,180,5.3,8.7,73,0.00,,,0.00,WUHU21636XXSP,2013-02-26 23:14:00,
2013-02-26 15:15:00,45.0,36.6,30.24,SSE,157,3.1,8.9,72,0.00,,,0.00,WUHU21636XXSP,2013-02-26 23:15:00,
2013-02-26 15:16:00,45.1,37.1,30.24,South,171,3.4,8.9,73,0.00,,,0.00,WUHU21636XXSP,2013-02-26 23:16:00,
2013-02-26 15:18:00,45.1,36.7,30.24,SSE,157,0.0,8.9,72,0.00,,,0.00,WUHU21636XXSP,2013-02-26 23:18:00,
2013-02-26 15:19:00,45.1,36.7,30.24,SSE,157,0.0,8.9,72,0.00,,,0.00,WUHU21636XXSP,2013-02-26 23:19:00,
2013-02-26 15:20:00,45.0,37.0,30.24,SSW,202,0.0,8.9,73,0.00,,,0.00,WUHU21636XXSP,2013-02-26 23:20:00,
2013-02-26 15:21:00,45.0,37.0,30.24,SSW,202,0.0,8.9,73,0.00,,,0.00,WUHU21636XXSP,2013-02-26 23:21:00,
2013-02-26 15:23:00,45.1,36.7,30.24,SW,225,2.4,8.9,72,0.00,,,0.00,WUHU21636XXSP,2013-02-26 23:23:00,
2013-02-26 15:24:00,45.0,36.6,30.24,SW,225,2.4,8.9,72,0.00,,,0.00,WUHU21636XXSP,2013-02-26 23:24:00,
2013-02-26 15:25:00,45.0,36.6,30.24,SW,225,2.4,3.1,72,0.00,,,0.00,WUHU21636XXSP,2013-02-26 23:25:00,
2013-02-26 15:26:00,45.0,36.6,30.24,NW,315,1.3,2.4,72,0.00,,,0.00,WUHU21636XXSP,2013-02-26 23:26:00,
2013-02-26 15:28:00,45.0,36.6,30.24,NW,315,1.3,2.4,72,0.00,,,0.00,WUHU21636XXSP,2013-02-26 23:28:00,
2013-02-26 15:30:00,45.0,36.6,30.24,WSW,253,0.9,2.4,72,0.00,,,0.00,WUHU21636XXSP,2013-02-26 23:30:00,
2013-02-26 15:31:00,45.0,37.0,30.24,SW,225,0.8,2.4,73,0.00,,,0.00,WUHU21636XXSP,2013-02-26 23:31:00,
2013-02-26 15:33:00,44.8,36.8,30.24,ESE,112,3.5,3.5,73,0.00,,,0.00,WUHU21636XXSP,2013-02-26 23:33:00,
2013-02-26 15:35:00,44.8,36.4,30.24,ESE,112,3.5,3.5,72,0.00,,,0.00,WUHU21636XXSP,2013-02-26 23:35:00,
2013-02-26 15:36:00,44.8,36.4,30.24,ESE,112,3.5,3.5,72,0.00,,,0.00,WUHU21636XXSP,2013-02-26 23:36:00,
2013-02-26 15:39:00,44.8,36.4,30.24,SE,135,0.6,3.5,72,0.00,,,0.00,WUHU21636XXSP,2013-02-26 23:39:00,
2013-02-26 15:40:00,44.8,36.4,30.24,SSW,202,1.1,3.5,72,0.00,,,0.00,WUHU21636XXSP,2013-02-26 23:40:00,
2013-02-26 15:41:00,44.8,36.4,30.24,South,180,2.4,3.5,72,0.00,,,0.00,WUHU21636XXSP,2013-02-26 23:41:00,
2013-02-26 15:44:00,44.8,36.8,30.24,South,180,2.4,3.5,73,0.00,,,0.00,WUHU21636XXSP,2013-02-26 23:44:00,
2013-02-26 15:45:00,44.8,36.8,30.24,South,180,2.4,2.4,73,0.00,,,0.00,WUHU21636XXSP,2013-02-26 23:45:00,
2013-02-26 15:46:00,44.8,36.8,30.24,SSW,202,0.0,2.4,73,0.00,,,0.00,WUHU21636XXSP,2013-02-26 23:46:00,
2013-02-26 15:49:00,44.6,36.6,30.24,SSW,202,0.0,2.4,73,0.00,,,0.00,WUHU21636XXSP,2013-02-26 23:49:00,
2013-02-26 15:50:00,44.8,37.1,30.24,South,180,0.8,2.4,74,0.00,,,0.00,WUHU21636XXSP,2013-02-26 23:50:00,
2013-02-26 15:51:00,44.8,37.1,30.24,South,180,0.8,2.4,74,0.00,,,0.00,WUHU21636XXSP,2013-02-26 23:51:00,
2013-02-26 15:52:00,44.8,37.1,30.24,South,180,0.8,2.4,74,0.00,,,0.00,WUHU21636XXSP,2013-02-26 23:52:00,
2013-02-26 15:54:00,44.6,36.9,30.24,SE,135,2.0,2.0,74,0.00,,,0.00,WUHU21636XXSP,2013-02-26 23:54:00,
2013-02-26 15:55:00,44.6,36.9,30.24,SE,135,2.0,2.0,74,0.00,,,0.00,WUHU21636XXSP,2013-02-26 23:55:00,
2013-02-26 15:56:00,44.6,36.9,30.24,SE,135,2.0,2.0,74,0.00,,,0.00,WUHU21636XXSP,2013-02-26 23:56:00,
2013-02-26 15:57:00,44.4,36.8,30.24,SE,139,1.7,2.0,74,0.00,,,0.00,WUHU21636XXSP,2013-02-26 23:57:00,
2013-02-26 15:59:00,44.4,36.8,30.24,South,190,0.5,2.0,74,0.00,,,0.00,WUHU21636XXSP,2013-02-26 23:59:00,
2013-02-26 16:00:00,44.4,36.8,30.24,SSW,202,0.4,2.0,74,0.00,,,0.00,WUHU21636XXSP,2013-02-27 00:00:00,
2013-02-26 16:01:00,44.4,36.8,30.24,SSW,202,0.4,2.0,74,0.00,,,0.00,WUHU21636XXSP,2013-02-27 00:01:00,
2013-02-26 16:02:00,44.4,36.8,30.24,SSW,202,0.4,2.0,74,0.00,,,0.00,WUHU21636XXSP,2013-02-27 00:02:00,
2013-02-26 16:04:00,44.4,37.1,30.23,South,180,3.5,3.5,75,0.00,,,0.00,WUHU21636XXSP,2013-02-27 00:04:00,
2013-02-26 16:05:00,44.4,37.1,30.24,ESE,112,5.3,8.2,75,0.00,,,0.00,WUHU21636XXSP,2013-02-27 00:05:00,
2013-02-26 16:06:00,44.4,37.1,30.24,SE,144,4.1,9.6,75,0.00,,,0.00,WUHU21636XXSP,2013-02-27 00:06:00,
2013-02-26 16:07:00,44.4,36.8,30.23,SE,128,2.9,9.6,74,0.00,,,0.00,WUHU21636XXSP,2013-02-27 00:07:00,
2013-02-26 16:09:00,44.2,36.9,30.23,SSE,157,1.1,9.6,75,0.00,,,0.00,WUHU21636XXSP,2013-02-27 00:09:00,
2013-02-26 16:10:00,44.2,36.9,30.23,SSE,157,0.0,9.6,75,0.00,,,0.00,WUHU21636XXSP,2013-02-27 00:10:00,
2013-02-26 16:11:00,44.2,36.6,30.23,SSE,157,0.0,9.6,74,0.00,,,0.00,WUHU21636XXSP,2013-02-27 00:11:00,
2013-02-26 16:12:00,44.2,36.6,30.23,SSE,157,0.0,9.6,74,0.00,,,0.00,WUHU21636XXSP,2013-02-27 00:12:00,
2013-02-26 16:14:00,44.4,37.1,30.23,SSE,157,0.0,9.6,75,0.00,,,0.00,WUHU21636XXSP,2013-02-27 00:14:00,
2013-02-26 16:15:00,44.2,36.9,30.23,SE,135,0.0,9.6,75,0.00,,,0.00,WUHU21636XXSP,2013-02-27 00:15:00,
2013-02-26 16:16:00,44.2,36.9,30.23,SE,135,0.0,1.1,75,0.00,,,0.00,WUHU21636XXSP,2013-02-27 00:16:00,
2013-02-26 16:17:00,44.2,37.2,30.24,SE,135,0.0,1.1,76,0.00,,,0.00,WUHU21636XXSP,2013-02-27 00:17:00,
2013-02-26 16:19:00,44.2,37.2,30.23,SE,135,0.0,0.0,76,0.00,,,0.00,WUHU21636XXSP,2013-02-27 00:19:00,
2013-02-26 16:20:00,44.2,37.2,30.23,SE,135,0.0,0.0,76,0.00,,,0.00,WUHU21636XXSP,2013-02-27 00:20:00,
2013-02-26 16:21:00,44.2,37.2,30.23,SE,135,0.0,0.0,76,0.00,,,0.00,WUHU21636XXSP,2013-02-27 00:21:00,
2013-02-26 16:22:00,44.2,37.2,30.23,SE,135,0.0,0.0,76,0.00,,,0.00,WUHU21636XXSP,2013-02-27 00:22:00,
2013-02-26 16:24:00,44.2,37.2,30.23,SE,135,0.0,0.0,76,0.00,,,0.00,WUHU21636XXSP,2013-02-27 00:24:00,
2013-02-26 16:25:00,44.2,37.2,30.23,South,180,0.0,0.0,76,0.00,,,0.00,WUHU21636XXSP,2013-02-27 00:25:00,
2013-02-26 16:26:00,44.2,37.2,30.23,South,180,0.0,0.0,76,0.00,,,0.00,WUHU21636XXSP,2013-02-27 00:26:00,
2013-02-26 16:28:00,44.2,37.6,30.23,South,180,0.0,0.0,77,0.00,,,0.00,WUHU21636XXSP,2013-02-27 00:28:00,
2013-02-26 16:30:00,44.2,37.2,30.23,South,180,0.0,0.0,76,0.00,,,0.00,WUHU21636XXSP,2013-02-27 00:30:00,
2013-02-26 16:31:00,44.2,37.2,30.23,South,180,0.0,0.0,76,0.00,,,0.00,WUHU21636XXSP,2013-02-27 00:31:00,
2013-02-26 16:33:00,44.2,37.2,30.23,SSW,202,0.0,0.0,76,0.00,,,0.00,WUHU21636XXSP,2013-02-27 00:33:00,
2013-02-26 16:35:00,44.1,37.5,30.23,SSW,202,0.0,0.0,77,0.00,,,0.00,WUHU21636XXSP,2013-02-27 00:35:00,
2013-02-26 16:36:00,44.1,37.5,30.23,SE,135,0.0,0.0,77,0.00,,,0.00,WUHU21636XXSP,2013-02-27 00:36:00,
2013-02-26 16:38:00,44.1,37.5,30.23,SE,135,0.0,0.0,77,0.00,,,0.00,WUHU21636XXSP,2013-02-27 00:38:00,
2013-02-26 16:40:00,44.2,37.6,30.23,SE,135,1.3,1.3,77,0.00,,,0.00,WUHU21636XXSP,2013-02-27 00:40:00,
2013-02-26 16:41:00,44.2,37.9,30.23,SE,135,1.3,1.3,78,0.00,,,0.00,WUHU21636XXSP,2013-02-27 00:41:00,
2013-02-26 16:43:00,43.9,37.6,30.22,SE,135,0.0,1.3,78,0.00,,,0.00,WUHU21636XXSP,2013-02-27 00:43:00,
2013-02-26 16:45:00,43.9,37.6,30.23,SE,135,0.0,1.3,78,0.00,,,0.00,WUHU21636XXSP,2013-02-27 00:45:00,
2013-02-26 16:46:00,43.9,37.6,30.22,SE,135,0.0,1.3,78,0.00,,,0.00,WUHU21636XXSP,2013-02-27 00:46:00,
2013-02-26 16:48:00,43.9,37.6,30.22,SE,135,0.0,1.3,78,0.00,,,0.00,WUHU21636XXSP,2013-02-27 00:48:00,
2013-02-26 16:50:00,43.7,37.4,30.22,SE,135,0.0,1.3,78,0.00,,,0.00,WUHU21636XXSP,2013-02-27 00:50:00,
2013-02-26 16:51:00,43.5,37.5,30.22,SSW,202,0.0,0.0,79,0.00,,,0.00,WUHU21636XXSP,2013-02-27 00:51:00,
2013-02-26 16:54:00,43.5,37.5,30.22,SSW,202,0.0,0.0,79,0.00,,,0.00,WUHU21636XXSP,2013-02-27 00:54:00,
2013-02-26 16:55:00,43.5,37.5,30.22,SSW,202,0.0,0.0,79,0.00,,,0.00,WUHU21636XXSP,2013-02-27 00:55:00,
2013-02-26 16:56:00,43.5,37.5,30.22,SSW,202,0.0,0.0,79,0.00,,,0.00,WUHU21636XXSP,2013-02-27 00:56:00,
2013-02-26 16:59:00,43.3,37.7,30.22,SSW,200,4.9,8.0,80,0.00,,,0.00,WUHU21636XXSP,2013-02-27 00:59:00,
2013-02-26 17:00:00,43.3,37.7,30.22,WSW,242,2.1,8.0,80,0.00,,,0.00,WUHU21636XXSP,2013-02-27 01:00:00,
2013-02-26 17:01:00,43.3,37.7,30.22,SSE,157,2.0,8.0,80,0.00,,,0.00,WUHU21636XXSP,2013-02-27 01:01:00,
2013-02-26 17:02:00,43.3,37.7,30.22,SSE,157,2.0,8.0,80,0.00,,,0.00,WUHU21636XXSP,2013-02-27 01:02:00,
2013-02-26 17:04:00,43.3,37.7,30.22,SSE,157,4.4,8.0,80,0.00,,,0.00,WUHU21636XXSP,2013-02-27 01:04:00,
2013-02-26 17:05:00,43.3,37.7,30.22,SSE,157,4.4,8.0,80,0.00,,,0.00,WUHU21636XXSP,2013-02-27 01:05:00,
2013-02-26 17:06:00,43.2,37.9,30.22,SSE,157,4.4,8.0,81,0.00,,,0.00,WUHU21636XXSP,2013-02-27 01:06:00,
2013-02-26 17:07:00,43.2,37.9,30.22,SSE,157,4.4,8.0,81,0.00,,,0.00,WUHU21636XXSP,2013-02-27 01:07:00,
2013-02-26 17:09:00,43.2,37.9,30.22,SE,135,0.0,4.4,81,0.00,,,0.00,WUHU21636XXSP,2013-02-27 01:09:00,
2013-02-26 17:10:00,43.0,38.0,30.22,SE,135,0.0,4.4,82,0.00,,,0.00,WUHU21636XXSP,2013-02-27 01:10:00,
2013-02-26 17:11:00,43.0,38.0,30.22,SE,135,0.0,4.4,82,0.00,,,0.00,WUHU21636XXSP,2013-02-27 01:11:00,
2013-02-26 17:12:00,43.0,38.0,30.22,SE,135,0.0,4.4,82,0.00,,,0.00,WUHU21636XXSP,2013-02-27 01:12:00,
2013-02-26 17:14:00,43.0,38.0,30.22,SSW,202,0.0,4.4,82,0.00,,,0.00,WUHU21636XXSP,2013-02-27 01:14:00,
2013-02-26 17:15:00,43.0,38.0,30.22,SSW,202,0.0,0.0,82,0.00,,,0.00,WUHU21636XXSP,2013-02-27 01:15:00,
2013-02-26 17:16:00,43.0,38.0,30.22,South,180,6.0,6.4,82,0.00,,,0.00,WUHU21636XXSP,2013-02-27 01:16:00,
2013-02-26 17:17:00,42.6,37.9,30.22,South,180,4.5,6.4,83,0.00,,,0.00,WUHU21636XXSP,2013-02-27 01:17:00,
2013-02-26 17:19:00,42.6,37.9,30.22,South,180,2.6,6.4,83,0.00,,,0.00,WUHU21636XXSP,2013-02-27 01:19:00,
2013-02-26 17:20:00,42.6,37.9,30.22,South,180,2.6,6.4,83,0.00,,,0.00,WUHU21636XXSP,2013-02-27 01:20:00,
2013-02-26 17:21:00,42.6,37.9,30.22,South,180,0.0,6.4,83,0.00,,,0.00,WUHU21636XXSP,2013-02-27 01:21:00,
2013-02-26 17:22:00,42.6,37.9,30.22,South,180,0.0,6.4,83,0.00,,,0.00,WUHU21636XXSP,2013-02-27 01:22:00,
2013-02-26 17:24:00,42.6,37.9,30.22,South,180,0.0,6.4,83,0.00,,,0.00,WUHU21636XXSP,2013-02-27 01:24:00,
2013-02-26 17:26:00,42.4,37.7,30.22,South,180,0.0,6.4,83,0.00,,,0.00,WUHU21636XXSP,2013-02-27 01:26:00,
2013-02-26 17:27:00,42.4,37.7,30.22,South,180,0.0,2.6,83,0.00,,,0.00,WUHU21636XXSP,2013-02-27 01:27:00,
2013-02-26 17:29:00,42.4,38.0,30.22,SSE,157,0.0,0.0,85,0.00,,,0.00,WUHU21636XXSP,2013-02-27 01:29:00,
2013-02-26 17:31:00,42.4,38.0,30.22,SSE,157,0.0,0.0,85,0.00,,,0.00,WUHU21636XXSP,2013-02-27 01:31:00,
2013-02-26 17:32:00,42.3,38.2,30.22,SSE,157,0.0,0.0,86,0.00,,,0.00,WUHU21636XXSP,2013-02-27 01:32:00,
2013-02-26 17:34:00,42.1,38.0,30.22,SSE,157,1.3,1.3,86,0.00,,,0.00,WUHU21636XXSP,2013-02-27 01:34:00,
2013-02-26 17:36:00,42.1,38.0,30.22,SSE,157,1.3,1.3,86,0.00,,,0.00,WUHU21636XXSP,2013-02-27 01:36:00,
2013-02-26 17:37:00,42.1,38.0,30.22,SSE,157,1.3,1.3,86,0.00,,,0.00,WUHU21636XXSP,2013-02-27 01:37:00,
2013-02-26 17:39:00,42.1,38.3,30.22,SSE,157,0.0,1.3,87,0.00,,,0.00,WUHU21636XXSP,2013-02-27 01:39:00,
2013-02-26 17:41:00,42.1,38.3,30.22,SSE,157,0.0,1.3,87,0.00,,,0.00,WUHU21636XXSP,2013-02-27 01:41:00,
2013-02-26 17:42:00,42.1,38.3,30.22,SSE,157,0.0,1.3,87,0.00,,,0.00,WUHU21636XXSP,2013-02-27 01:42:00,
2013-02-26 17:44:00,41.9,38.1,30.22,SSE,157,0.0,1.3,87,0.00,,,0.00,WUHU21636XXSP,2013-02-27 01:44:00,
2013-02-26 17:46:00,41.9,38.1,30.22,SSE,157,0.0,0.0,87,0.00,,,0.00,WUHU21636XXSP,2013-02-27 01:46:00,
2013-02-26 17:47:00,41.9,38.1,30.22,SSE,157,0.0,0.0,87,0.00,,,0.00,WUHU21636XXSP,2013-02-27 01:47:00,
2013-02-26 17:49:00,41.9,38.1,30.22,SSE,157,0.0,0.0,87,0.00,,,0.00,WUHU21636XXSP,2013-02-27 01:49:00,
2013-02-26 17:51:00,41.9,38.1,30.22,South,180,0.0,0.0,87,0.00,,,0.00,WUHU21636XXSP,2013-02-27 01:51:00,
2013-02-26 17:52:00,41.9,38.1,30.22,South,180,0.0,0.0,87,0.00,,,0.00,WUHU21636XXSP,2013-02-27 01:52:00,
2013-02-26 17:54:00,41.7,37.9,30.22,SSE,157,0.0,0.0,87,0.00,,,0.00,WUHU21636XXSP,2013-02-27 01:54:00,
2013-02-26 17:56:00,41.7,37.9,30.22,SSE,157,0.0,0.0,87,0.00,,,0.00,WUHU21636XXSP,2013-02-27 01:56:00,
2013-02-26 17:57:00,41.7,37.9,30.23,South,180,0.0,0.0,87,0.00,,,0.00,WUHU21636XXSP,2013-02-27 01:57:00,
2013-02-26 17:59:00,41.7,37.9,30.23,SSW,202,0.0,0.0,87,0.00,,,0.00,WUHU21636XXSP,2013-02-27 01:59:00,
2013-02-26 18:01:00,41.7,37.9,30.23,SSW,202,0.0,0.0,87,0.00,,,0.00,WUHU21636XXSP,2013-02-27 02:01:00,
2013-02-26 18:02:00,41.7,37.9,30.22,WSW,247,0.0,0.0,87,0.00,,,0.00,WUHU21636XXSP,2013-02-27 02:02:00,
2013-02-26 18:05:00,41.5,37.8,30.22,SSE,157,1.7,1.7,87,0.00,,,0.00,WUHU21636XXSP,2013-02-27 02:05:00,
2013-02-26 18:06:00,41.5,37.8,30.22,SSE,157,1.7,1.7,87,0.00,,,0.00,WUHU21636XXSP,2013-02-27 02:06:00,
2013-02-26 18:07:00,41.5,37.8,30.22,SSE,157,1.7,1.7,87,0.00,,,0.00,WUHU21636XXSP,2013-02-27 02:07:00,
2013-02-26 18:08:00,41.5,38.0,30.22,SSE,157,0.0,1.7,88,0.00,,,0.00,WUHU21636XXSP,2013-02-27 02:08:00,
2013-02-26 18:10:00,41.5,38.0,30.23,SSE,157,0.0,1.7,88,0.00,,,0.00,WUHU21636XXSP,2013-02-27 02:10:00,
2013-02-26 18:12:00,41.5,38.0,30.22,South,180,0.0,1.7,88,0.00,,,0.00,WUHU21636XXSP,2013-02-27 02:12:00,
2013-02-26 18:13:00,41.4,37.9,30.22,SSE,157,0.0,1.7,88,0.00,,,0.00,WUHU21636XXSP,2013-02-27 02:13:00,
2013-02-26 18:16:00,41.4,37.9,30.22,SSE,157,0.4,0.4,88,0.00,,,0.00,WUHU21636XXSP,2013-02-27 02:16:00,
2013-02-26 18:17:00,41.4,37.9,30.22,SSE,157,0.4,0.4,88,0.00,,,0.00,WUHU21636XXSP,2013-02-27 02:17:00,
2013-02-26 18:19:00,41.2,38.0,30.22,SSE,157,6.0,6.9,89,0.00,,,0.00,WUHU21636XXSP,2013-02-27 02:19:00,
2013-02-26 18:20:00,41.2,38.0,30.22,South,183,5.1,15.4,89,0.00,,,0.00,WUHU21636XXSP,2013-02-27 02:20:00,
2013-02-26 18:21:00,41.2,38.0,30.22,SSW,194,6.0,15.4,89,0.00,,,0.00,WUHU21636XXSP,2013-02-27 02:21:00,
2013-02-26 18:22:00,41.2,38.0,30.22,South,180,4.2,15.4,89,0.00,,,0.00,WUHU21636XXSP,2013-02-27 02:22:00,
2013-02-26 18:24:00,41.2,37.8,30.22,SSE,147,5.1,15.4,88,0.00,,,0.00,WUHU21636XXSP,2013-02-27 02:24:00,
2013-02-26 18:26:00,41.2,37.8,30.22,South,175,3.3,15.4,88,0.00,,,0.00,WUHU21636XXSP,2013-02-27 02:26:00,
2013-02-26 18:27:00,41.2,37.8,30.22,South,180,3.1,15.4,88,0.00,,,0.00,WUHU21636XXSP,2013-02-27 02:27:00,
2013-02-26 18:29:00,41.2,37.8,30.22,SSE,157,2.0,15.4,88,0.00,,,0.00,WUHU21636XXSP,2013-02-27 02:29:00,
2013-02-26 18:31:00,41.2,37.8,30.22,SE,135,1.1,8.2,88,0.00,,,0.00,WUHU21636XXSP,2013-02-27 02:31:00,
2013-02-26 18:32:00,41.2,37.8,30.22,SE,135,1.1,8.2,88,0.00,,,0.00,WUHU21636XXSP,2013-02-27 02:32:00,
2013-02-26 18:33:00,41.2,37.8,30.22,SE,135,1.1,8.2,88,0.00,,,0.00,WUHU21636XXSP,2013-02-27 02:33:00,
2013-02-26 18:34:00,41.2,38.0,30.22,SE,135,3.3,8.2,89,0.00,,,0.00,WUHU21636XXSP,2013-02-27 02:34:00,
2013-02-26 18:36:00,41.2,38.0,30.22,South,180,3.5,8.2,89,0.00,,,0.00,WUHU21636XXSP,2013-02-27 02:36:00,
2013-02-26 18:37:00,41.2,38.0,30.22,South,180,3.5,8.2,89,0.00,,,0.00,WUHU21636XXSP,2013-02-27 02:37:00,
2013-02-26 18:38:00,41.2,38.0,30.22,South,180,3.5,8.2,89,0.00,,,0.00,WUHU21636XXSP,2013-02-27 02:38:00,
2013-02-26 18:40:00,40.8,37.7,30.22,SE,135,3.8,8.2,89,0.00,,,0.00,WUHU21636XXSP,2013-02-27 02:40:00,
2013-02-26 18:41:00,40.8,37.7,30.22,SE,135,3.8,8.2,89,0.00,,,0.00,WUHU21636XXSP,2013-02-27 02:41:00,
2013-02-26 18:42:00,40.8,37.7,30.22,South,180,0.0,8.2,89,0.00,,,0.00,WUHU21636XXSP,2013-02-27 02:42:00,
2013-02-26 18:43:00,40.8,37.7,30.22,South,180,0.0,8.2,89,0.00,,,0.00,WUHU21636XXSP,2013-02-27 02:43:00,
2013-02-26 18:45:00,41.0,37.8,30.22,NNE,22,1.7,3.8,89,0.00,,,0.00,WUHU21636XXSP,2013-02-27 02:45:00,
2013-02-26 18:46:00,40.8,37.7,30.22,NNE,22,1.7,3.8,89,0.00,,,0.00,WUHU21636XXSP,2013-02-27 02:46:00,
2013-02-26 18:47:00,40.8,37.7,30.22,NNE,22,1.7,3.8,89,0.00,,,0.00,WUHU21636XXSP,2013-02-27 02:47:00,
2013-02-26 18:48:00,40.8,37.7,30.22,NNE,22,1.7,3.8,89,0.00,,,0.00,WUHU21636XXSP,2013-02-27 02:48:00,
2013-02-26 18:50:00,40.8,37.7,30.22,SSE,157,4.0,4.0,89,0.00,,,0.00,WUHU21636XXSP,2013-02-27 02:50:00,
2013-02-26 18:52:00,40.8,37.7,30.22,SSE,157,3.4,4.0,89,0.00,,,0.00,WUHU21636XXSP,2013-02-27 02:52:00,
2013-02-26 18:53:00,40.8,37.7,30.22,SSE,157,2.6,4.0,89,0.00,,,0.00,WUHU21636XXSP,2013-02-27 02:53:00,
2013-02-26 18:56:00,40.8,37.7,30.22,SSE,157,2.4,4.0,89,0.00,,,0.00,WUHU21636XXSP,2013-02-27 02:56:00,
2013-02-26 18:57:00,40.8,37.7,30.22,SSE,157,2.4,4.0,89,0.00,,,0.00,WUHU21636XXSP,2013-02-27 02:57:00,
2013-02-26 18:58:00,40.8,37.7,30.22,SSE,157,2.4,4.0,89,0.00,,,0.00,WUHU21636XXSP,2013-02-27 02:58:00,
2013-02-26 19:01:00,40.8,37.7,30.22,SSE,157,1.1,2.6,89,0.00,,,0.00,WUHU21636XXSP,2013-02-27 03:01:00,
2013-02-26 19:02:00,40.8,37.7,30.22,SSE,157,1.1,2.6,89,0.00,,,0.00,WUHU21636XXSP,2013-02-27 03:02:00,
2013-02-26 19:03:00,40.8,37.7,30.22,SSE,157,1.1,2.4,89,0.00,,,0.00,WUHU21636XXSP,2013-02-27 03:03:00,
2013-02-26 19:06:00,40.6,37.5,30.22,SSE,157,0.0,2.4,89,0.00,,,0.00,WUHU21636XXSP,2013-02-27 03:06:00,
2013-02-26 19:07:00,40.6,37.5,30.22,SSW,202,2.0,2.0,89,0.00,,,0.00,WUHU21636XXSP,2013-02-27 03:07:00,
2013-02-26 19:08:00,40.6,37.5,30.21,South,180,2.0,2.0,89,0.00,,,0.00,WUHU21636XXSP,2013-02-27 03:08:00,
2013-02-26 19:09:00,40.6,37.5,30.22,South,180,2.0,2.0,89,0.00,,,0.00,WUHU21636XXSP,2013-02-27 03:09:00,
2013-02-26 19:11:00,40.6,37.5,30.22,South,180,2.0,2.0,89,0.00,,,0.00,WUHU21636XXSP,2013-02-27 03:11:00,
2013-02-26 19:12:00,40.6,37.5,30.21,SSE,157,0.0,2.0,89,0.00,,,0.00,WUHU21636XXSP,2013-02-27 03:12:00,
2013-02-26 19:13:00,40.6,37.5,30.21,SSE,157,3.1,3.1,89,0.00,,,0.00,WUHU21636XXSP,2013-02-27 03:13:00,
2013-02-26 19:15:00,40.6,37.5,30.21,SSE,157,3.1,3.1,89,0.00,,,0.00,WUHU21636XXSP,2013-02-27 03:15:00,
2013-02-26 19:16:00,40.6,37.5,30.21,SSE,157,3.1,3.1,89,0.00,,,0.00,WUHU21636XXSP,2013-02-27 03:16:00,
2013-02-26 19:17:00,40.6,37.5,30.21,South,180,0.0,3.1,89,0.00,,,0.00,WUHU21636XXSP,2013-02-27 03:17:00,
2013-02-26 19:18:00,40.6,37.5,30.21,South,180,0.0,3.1,89,0.00,,,0.00,WUHU21636XXSP,2013-02-27 03:18:00,
2013-02-26 19:20:00,40.6,37.5,30.21,South,180,4.7,6.7,89,0.00,,,0.00,WUHU21636XXSP,2013-02-27 03:20:00,
2013-02-26 19:21:00,40.6,37.5,30.21,South,180,3.7,6.7,89,0.00,,,0.00,WUHU21636XXSP,2013-02-27 03:21:00,
2013-02-26 19:22:00,40.6,37.5,30.21,SSW,202,3.5,6.7,89,0.00,,,0.00,WUHU21636XXSP,2013-02-27 03:22:00,
2013-02-26 19:24:00,40.6,37.5,30.21,South,180,13.6,14.3,89,0.00,,,0.00,WUHU21636XXSP,2013-02-27 03:24:00,
2013-02-26 19:25:00,40.5,37.4,30.21,South,183,7.3,14.3,89,0.00,,,0.00,WUHU21636XXSP,2013-02-27 03:25:00,
2013-02-26 19:26:00,40.5,37.4,30.21,SSE,159,3.7,14.3,89,0.00,,,0.00,WUHU21636XXSP,2013-02-27 03:26:00,
2013-02-26 19:27:00,40.3,37.2,30.21,SSE,157,2.8,14.3,89,0.00,,,0.00,WUHU21636XXSP,2013-02-27 03:27:00,
2013-02-26 19:29:00,40.3,37.2,30.21,SSE,167,1.4,14.3,89,0.00,,,0.00,WUHU21636XXSP,2013-02-27 03:29:00,
2013-02-26 19:30:00,40.5,37.4,30.21,SSE,157,5.1,14.3,89,0.00,,,0.00,WUHU21636XXSP,2013-02-27 03:30:00,
2013-02-26 19:32:00,40.5,37.4,30.21,SSE,157,1.1,14.3,89,0.00,,,0.00,WUHU21636XXSP,2013-02-27 03:32:00,
2013-02-26 19:34:00,40.3,37.2,30.21,SSE,157,2.0,13.6,89,0.00,,,0.00,WUHU21636XXSP,2013-02-27 03:34:00,
2013-02-26 19:35:00,40.3,37.2,30.20,SSE,157,2.0,7.1,89,0.00,,,0.00,WUHU21636XXSP,2013-02-27 03:35:00,
2013-02-26 19:37:00,40.3,37.2,30.20,South,180,4.9,7.1,89,0.00,,,0.00,WUHU21636XXSP,2013-02-27 03:37:00,
2013-02-26 19:38:00,40.3,37.2,30.20,South,180,4.9,7.1,89,0.00,,,0.00,WUHU21636XXSP,2013-02-27 03:38:00,
2013-02-26 19:39:00,40.3,37.4,30.21,South,180,4.9,7.1,90,0.00,,,0.00,WUHU21636XXSP,2013-02-27 03:39:00,
2013-02-26 19:40:00,40.3,37.4,30.21,South,180,4.9,5.1,90,0.00,,,0.00,WUHU21636XXSP,2013-02-27 03:40:00,
2013-02-26 19:43:00,40.3,37.4,30.20,South,180,3.3,4.9,90,0.00,,,0.00,WUHU21636XXSP,2013-02-27 03:43:00,
2013-02-26 19:44:00,40.5,37.6,30.21,SSW,198,3.2,4.9,90,0.00,,,0.00,WUHU21636XXSP,2013-02-27 03:44:00,
2013-02-26 19:45:00,40.5,37.6,30.21,SW,225,3.1,4.9,90,0.00,,,0.00,WUHU21636XXSP,2013-02-27 03:45:00,
2013-02-26 19:48:00,40.5,37.6,30.20,South,180,0.6,4.9,90,0.00,,,0.00,WUHU21636XXSP,2013-02-27 03:48:00,
2013-02-26 19:49:00,40.5,37.6,30.21,South,180,0.6,3.3,90,0.00,,,0.00,WUHU21636XXSP,2013-02-27 03:49:00,
2013-02-26 19:50:00,40.3,37.4,30.21,South,173,0.4,3.3,90,0.00,,,0.00,WUHU21636XXSP,2013-02-27 03:50:00,
2013-02-26 19:53:00,40.5,37.6,30.21,SSE,157,0.8,3.1,90,0.00,,,0.00,WUHU21636XXSP,2013-02-27 03:53:00,
2013-02-26 19:54:00,40.3,37.4,30.21,SE,135,1.7,3.1,90,0.00,,,0.00,WUHU21636XXSP,2013-02-27 03:54:00,
2013-02-26 19:56:00,40.3,37.4,30.21,SE,135,1.7,1.7,90,0.00,,,0.00,WUHU21636XXSP,2013-02-27 03:56:00,
2013-02-26 19:58:00,40.3,37.4,30.21,SE,135,3.8,3.8,90,0.00,,,0.00,WUHU21636XXSP,2013-02-27 03:58:00,
2013-02-26 19:59:00,40.5,37.6,30.21,SSE,157,4.2,4.2,90,0.00,,,0.00,WUHU21636XXSP,2013-02-27 03:59:00,
2013-02-26 20:01:00,40.5,37.6,30.21,SSE,157,4.2,4.2,90,0.00,,,0.00,WUHU21636XXSP,2013-02-27 04:01:00,
2013-02-26 20:03:00,40.5,37.6,30.21,SE,135,0.0,4.2,90,0.00,,,0.00,WUHU21636XXSP,2013-02-27 04:03:00,
2013-02-26 20:04:00,40.5,37.6,30.21,SE,135,0.0,4.2,90,0.00,,,0.00,WUHU21636XXSP,2013-02-27 04:04:00,
2013-02-26 20:06:00,40.3,37.4,30.21,South,180,0.0,4.2,90,0.00,,,0.00,WUHU21636XXSP,2013-02-27 04:06:00,
2013-02-26 20:08:00,40.3,37.4,30.21,South,180,0.0,4.2,90,0.00,,,0.00,WUHU21636XXSP,2013-02-27 04:08:00,
2013-02-26 20:09:00,40.6,37.7,30.21,SSW,202,0.0,4.2,90,0.00,,,0.00,WUHU21636XXSP,2013-02-27 04:09:00,
2013-02-26 20:11:00,40.6,37.7,30.21,SSW,202,0.0,0.0,90,0.00,,,0.00,WUHU21636XXSP,2013-02-27 04:11:00,
2013-02-26 20:13:00,40.6,37.7,30.20,SSW,202,0.0,0.0,90,0.00,,,0.00,WUHU21636XXSP,2013-02-27 04:13:00,
2013-02-26 20:14:00,40.6,37.7,30.21,SSW,202,0.0,0.0,90,0.00,,,0.00,WUHU21636XXSP,2013-02-27 04:14:00,
2013-02-26 20:15:00,40.6,37.7,30.21,SSW,202,0.0,0.0,90,0.00,,,0.00,WUHU21636XXSP,2013-02-27 04:15:00,
2013-02-26 20:16:00,40.5,37.6,30.21,SSE,157,3.3,3.3,90,0.00,,,0.00,WUHU21636XXSP,2013-02-27 04:16:00,
2013-02-26 20:18:00,40.5,37.6,30.21,SSE,157,3.3,3.3,90,0.00,,,0.00,WUHU21636XXSP,2013-02-27 04:18:00,
2013-02-26 20:19:00,40.5,37.6,30.21,South,180,0.0,3.3,90,0.00,,,0.00,WUHU21636XXSP,2013-02-27 04:19:00,
2013-02-26 20:20:00,40.3,37.4,30.21,South,180,1.1,3.3,90,0.00,,,0.00,WUHU21636XXSP,2013-02-27 04:20:00,
2013-02-26 20:22:00,40.3,37.4,30.21,SE,135,1.1,3.3,90,0.00,,,0.00,WUHU21636XXSP,2013-02-27 04:22:00,
2013-02-26 20:23:00,40.3,37.4,30.21,SE,135,1.1,3.3,90,0.00,,,0.00,WUHU21636XXSP,2013-02-27 04:23:00,
2013-02-26 20:25:00,40.3,37.4,30.21,SE,135,1.1,3.3,90,0.00,,,0.00,WUHU21636XXSP,2013-02-27 04:25:00,
2013-02-26 20:27:00,40.3,37.4,30.21,SSE,157,0.0,3.3,90,0.00,,,0.00,WUHU21636XXSP,2013-02-27 04:27:00,
2013-02-26 20:28:00,40.3,37.4,30.21,South,180,0.0,1.1,90,0.00,,,0.00,WUHU21636XXSP,2013-02-27 04:28:00,
2013-02-26 20:30:00,40.3,37.4,30.21,South,180,0.0,1.1,90,0.00,,,0.00,WUHU21636XXSP,2013-02-27 04:30:00,
2013-02-26 20:32:00,40.3,37.4,30.21,SSE,157,3.1,3.1,90,0.00,,,0.00,WUHU21636XXSP,2013-02-27 04:32:00,
2013-02-26 20:34:00,40.3,37.4,30.21,SSE,157,3.1,3.1,90,0.00,,,0.00,WUHU21636XXSP,2013-02-27 04:34:00,
2013-02-26 20:35:00,40.3,37.7,30.21,SSE,157,2.9,3.1,91,0.00,,,0.00,WUHU21636XXSP,2013-02-27 04:35:00,
2013-02-26 20:37:00,40.3,37.7,30.22,SSE,157,3.3,3.3,91,0.00,,,0.00,WUHU21636XXSP,2013-02-27 04:37:00,
2013-02-26 20:39:00,40.3,37.7,30.22,SSE,157,3.3,3.3,91,0.00,,,0.00,WUHU21636XXSP,2013-02-27 04:39:00,
2013-02-26 20:40:00,40.3,37.7,30.22,SSE,157,3.3,3.3,91,0.00,,,0.00,WUHU21636XXSP,2013-02-27 04:40:00,
2013-02-26 20:42:00,40.3,37.7,30.22,SE,135,0.0,3.3,91,0.00,,,0.00,WUHU21636XXSP,2013-02-27 04:42:00,
2013-02-26 20:44:00,40.3,37.7,30.22,South,180,0.0,3.3,91,0.00,,,0.00,WUHU21636XXSP,2013-02-27 04:44:00,
2013-02-26 20:45:00,40.3,37.7,30.22,South,180,0.0,3.3,91,0.00,,,0.00,WUHU21636XXSP,2013-02-27 04:45:00,
2013-02-26 20:47:00,40.1,37.5,30.21,SSE,157,3.1,3.3,91,0.00,,,0.00,WUHU21636XXSP,2013-02-27 04:47:00,
2013-02-26 20:49:00,40.1,37.5,30.22,South,180,4.6,8.0,91,0.00,,,0.00,WUHU21636XXSP,2013-02-27 04:49:00,
2013-02-26 20:50:00,40.1,37.5,30.21,SSE,162,3.1,8.0,91,0.00,,,0.00,WUHU21636XXSP,2013-02-27 04:50:00,
2013-02-26 20:52:00,40.1,37.5,30.21,SSE,157,4.6,8.0,91,0.00,,,0.00,WUHU21636XXSP,2013-02-27 04:52:00,
2013-02-26 20:54:00,40.1,37.5,30.22,SSE,157,4.6,8.0,91,0.00,,,0.00,WUHU21636XXSP,2013-02-27 04:54:00,
2013-02-26 20:55:00,40.1,37.5,30.21,SSE,157,4.6,8.0,91,0.00,,,0.00,WUHU21636XXSP,2013-02-27 04:55:00,
2013-02-26 20:56:00,40.1,37.5,30.21,SSE,157,4.6,8.0,91,0.00,,,0.00,WUHU21636XXSP,2013-02-27 04:56:00,
2013-02-26 20:57:00,40.1,37.5,30.22,SE,135,0.0,8.0,91,0.00,,,0.00,WUHU21636XXSP,2013-02-27 04:57:00,
2013-02-26 20:59:00,40.1,37.5,30.21,SSW,202,3.1,4.6,91,0.00,,,0.00,WUHU21636XXSP,2013-02-27 04:59:00,
2013-02-26 21:00:00,40.1,37.5,30.21,SSW,202,3.1,4.6,91,0.00,,,0.00,WUHU21636XXSP,2013-02-27 05:00:00,
2013-02-26 21:05:00,40.1,37.5,30.21,SE,135,0.8,3.1,91,0.00,,,0.00,WUHU21636XXSP,2013-02-27 05:05:00,
2013-02-26 21:10:00,40.1,37.5,30.21,South,180,0.0,3.1,91,0.00,,,0.00,WUHU21636XXSP,2013-02-27 05:10:00,
2013-02-26 21:15:00,39.9,37.3,30.21,SSW,202,3.1,3.1,91,0.00,,,0.00,WUHU21636XXSP,2013-02-27 05:15:00,
2013-02-26 21:20:00,39.9,37.3,30.20,South,180,6.2,7.6,91,0.00,,,0.00,WUHU21636XXSP,2013-02-27 05:20:00,
2013-02-26 21:25:00,40.1,37.3,30.20,SSE,157,5.1,10.9,90,0.00,,,0.00,WUHU21636XXSP,2013-02-27 05:25:00,
2013-02-26 21:26:00,39.9,37.3,30.20,SSE,159,3.9,10.9,91,0.00,,,0.00,WUHU21636XXSP,2013-02-27 05:26:00,
2013-02-26 21:30:00,39.9,37.3,30.20,WSW,247,0.6,10.9,91,0.00,,,0.00,WUHU21636XXSP,2013-02-27 05:30:00,
2013-02-26 21:31:00,39.9,37.3,30.20,WSW,247,0.6,10.9,91,0.00,,,0.00,WUHU21636XXSP,2013-02-27 05:31:00,
2013-02-26 21:35:00,39.9,37.3,30.20,SSE,157,2.6,2.6,91,0.00,,,0.00,WUHU21636XXSP,2013-02-27 05:35:00,
2013-02-26 21:36:00,39.9,37.3,30.20,SSE,157,2.6,2.6,91,0.00,,,0.00,WUHU21636XXSP,2013-02-27 05:36:00,
2013-02-26 21:40:00,39.9,37.3,30.20,South,180,1.7,3.8,91,0.00,,,0.00,WUHU21636XXSP,2013-02-27 05:40:00,
2013-02-26 21:41:00,39.9,37.3,30.20,South,180,1.7,3.8,91,0.00,,,0.00,WUHU21636XXSP,2013-02-27 05:41:00,
2013-02-26 21:42:00,39.9,37.3,30.20,South,180,1.7,3.8,91,0.00,,,0.00,WUHU21636XXSP,2013-02-27 05:42:00,
2013-02-26 21:45:00,39.9,37.6,30.20,South,180,3.3,3.8,92,0.00,,,0.00,WUHU21636XXSP,2013-02-27 05:45:00,
2013-02-26 21:46:00,39.9,37.6,30.20,South,180,3.3,3.8,92,0.00,,,0.00,WUHU21636XXSP,2013-02-27 05:46:00,
2013-02-26 21:47:00,39.7,37.4,30.20,South,180,3.3,3.8,92,0.00,,,0.00,WUHU21636XXSP,2013-02-27 05:47:00,
2013-02-26 21:50:00,39.7,37.4,30.20,SSE,157,0.0,3.3,92,0.00,,,0.00,WUHU21636XXSP,2013-02-27 05:50:00,
2013-02-26 21:51:00,39.7,37.4,30.20,SSW,202,2.4,3.3,92,0.00,,,0.00,WUHU21636XXSP,2013-02-27 05:51:00,
2013-02-26 21:52:00,39.7,37.4,30.20,SSW,202,2.4,3.3,92,0.00,,,0.00,WUHU21636XXSP,2013-02-27 05:52:00,
2013-02-26 21:56:00,39.7,37.7,30.21,SSE,157,2.9,3.3,93,0.00,,,0.00,WUHU21636XXSP,2013-02-27 05:56:00,
2013-02-26 21:57:00,39.7,37.7,30.20,SSE,157,2.9,2.9,93,0.00,,,0.00,WUHU21636XXSP,2013-02-27 05:57:00,
2013-02-26 22:01:00,39.7,37.7,30.20,SE,133,3.0,8.0,93,0.02,,,0.02,WUHU21636XXSP,2013-02-27 06:01:00,
2013-02-26 22:02:00,39.7,37.7,30.20,SSE,148,1.9,8.0,93,0.02,,,0.02,WUHU21636XXSP,2013-02-27 06:02:00,
2013-02-26 22:03:00,39.7,37.7,30.21,SSE,157,0.7,8.0,93,0.02,,,0.02,WUHU21636XXSP,2013-02-27 06:03:00,
2013-02-26 22:06:00,39.7,37.7,30.20,SE,135,1.7,8.0,93,0.02,,,0.02,WUHU21636XXSP,2013-02-27 06:06:00,
2013-02-26 22:07:00,39.7,37.7,30.20,SSW,202,0.0,8.0,93,0.02,,,0.02,WUHU21636XXSP,2013-02-27 06:07:00,
2013-02-26 22:08:00,39.7,37.7,30.20,SSW,202,0.0,8.0,93,0.02,,,0.02,WUHU21636XXSP,2013-02-27 06:08:00,
2013-02-26 22:11:00,39.6,37.6,30.20,SSE,157,2.6,2.6,93,0.02,,,0.02,WUHU21636XXSP,2013-02-27 06:11:00,
2013-02-26 22:12:00,39.7,37.7,30.20,SSW,202,4.6,4.6,93,0.02,,,0.02,WUHU21636XXSP,2013-02-27 06:12:00,
2013-02-26 22:13:00,39.7,37.7,30.20,SSW,202,4.6,4.6,93,0.02,,,0.02,WUHU21636XXSP,2013-02-27 06:13:00,
2013-02-26 22:16:00,39.6,37.6,30.20,SSW,202,0.0,4.6,93,0.02,,,0.02,WUHU21636XXSP,2013-02-27 06:16:00,
2013-02-26 22:17:00,39.6,37.6,30.20,SSW,202,0.0,4.6,93,0.02,,,0.02,WUHU21636XXSP,2013-02-27 06:17:00,
2013-02-26 22:18:00,39.6,37.6,30.20,SSW,202,0.0,4.6,93,0.02,,,0.02,WUHU21636XXSP,2013-02-27 06:18:00,
2013-02-26 22:21:00,39.6,37.6,30.20,SE,135,0.6,4.6,93,0.02,,,0.02,WUHU21636XXSP,2013-02-27 06:21:00,
2013-02-26 22:22:00,39.7,38.0,30.20,South,180,0.0,4.6,94,0.02,,,0.02,WUHU21636XXSP,2013-02-27 06:22:00,
2013-02-26 22:23:00,39.7,38.0,30.20,South,180,0.0,4.6,94,0.02,,,0.02,WUHU21636XXSP,2013-02-27 06:23:00,
2013-02-26 22:26:00,39.6,37.9,30.20,SSW,202,0.0,0.6,94,0.02,,,0.02,WUHU21636XXSP,2013-02-27 06:26:00,
2013-02-26 22:27:00,39.6,37.9,30.20,SE,135,3.1,3.1,94,0.02,,,0.02,WUHU21636XXSP,2013-02-27 06:27:00,
2013-02-26 22:28:00,39.6,37.9,30.20,SE,135,3.1,3.1,94,0.02,,,0.02,WUHU21636XXSP,2013-02-27 06:28:00,
2013-02-26 22:31:00,39.6,37.9,30.20,SSE,157,2.0,3.1,94,0.02,,,0.02,WUHU21636XXSP,2013-02-27 06:31:00,
2013-02-26 22:32:00,39.6,37.9,30.20,SSE,157,2.0,3.1,94,0.02,,,0.02,WUHU21636XXSP,2013-02-27 06:32:00,
2013-02-26 22:33:00,39.6,37.9,30.20,SSE,157,2.0,3.1,94,0.02,,,0.02,WUHU21636XXSP,2013-02-27 06:33:00,
2013-02-26 22:36:00,39.6,37.9,30.19,SSE,157,0.0,3.1,94,0.02,,,0.02,WUHU21636XXSP,2013-02-27 06:36:00,
2013-02-26 22:37:00,39.6,37.9,30.20,SSE,157,0.0,3.1,94,0.02,,,0.02,WUHU21636XXSP,2013-02-27 06:37:00,
2013-02-26 22:38:00,39.6,37.9,30.20,SE,135,0.0,3.1,94,0.02,,,0.02,WUHU21636XXSP,2013-02-27 06:38:00,
2013-02-26 22:41:00,39.6,37.9,30.20,SSW,202,0.0,2.0,94,0.02,,,0.02,WUHU21636XXSP,2013-02-27 06:41:00,
2013-02-26 22:42:00,39.6,37.9,30.19,South,180,0.0,2.0,94,0.02,,,0.02,WUHU21636XXSP,2013-02-27 06:42:00,
2013-02-26 22:43:00,39.6,37.9,30.19,South,180,0.0,0.0,94,0.02,,,0.02,WUHU21636XXSP,2013-02-27 06:43:00,
2013-02-26 22:44:00,39.6,37.9,30.20,South,180,0.0,0.0,94,0.02,,,0.02,WUHU21636XXSP,2013-02-27 06:44:00,
2013-02-26 22:46:00,39.6,37.9,30.19,South,180,0.0,0.0,94,0.02,,,0.02,WUHU21636XXSP,2013-02-27 06:46:00,
2013-02-26 22:47:00,39.6,37.9,30.19,South,180,0.0,0.0,94,0.02,,,0.02,WUHU21636XXSP,2013-02-27 06:47:00,
2013-02-26 22:48:00,39.6,37.9,30.19,South,180,0.0,0.0,94,0.02,,,0.02,WUHU21636XXSP,2013-02-27 06:48:00,
2013-02-26 22:49:00,39.6,37.9,30.20,SSE,157,0.0,0.0,94,0.02,,,0.02,WUHU21636XXSP,2013-02-27 06:49:00,
2013-02-26 22:51:00,39.4,38.0,30.19,SSW,202,0.0,0.0,95,0.03,,,0.03,WUHU21636XXSP,2013-02-27 06:51:00,
2013-02-26 22:52:00,39.4,38.0,30.19,SSW,202,0.0,0.0,95,0.03,,,0.03,WUHU21636XXSP,2013-02-27 06:52:00,
2013-02-26 22:53:00,39.4,38.0,30.20,SSE,157,0.0,0.0,95,0.03,,,0.03,WUHU21636XXSP,2013-02-27 06:53:00,
2013-02-26 22:54:00,39.4,38.0,30.20,SSE,157,0.0,0.0,95,0.03,,,0.03,WUHU21636XXSP,2013-02-27 06:54:00,
2013-02-26 22:57:00,39.4,38.0,30.19,South,180,0.0,0.0,95,0.03,,,0.03,WUHU21636XXSP,2013-02-27 06:57:00,
2013-02-26 22:58:00,39.4,38.0,30.19,SSW,202,2.6,2.6,95,0.03,,,0.03,WUHU21636XXSP,2013-02-27 06:58:00,
2013-02-26 22:59:00,39.4,38.0,30.20,SSW,202,2.6,2.6,95,0.03,,,0.03,WUHU21636XXSP,2013-02-27 06:59:00,
2013-02-26 23:02:00,39.4,38.0,30.19,SSE,157,1.7,2.6,95,0.01,,,0.03,WUHU21636XXSP,2013-02-27 07:02:00,
2013-02-26 23:03:00,39.4,38.0,30.20,SSE,157,1.7,2.6,95,0.01,,,0.03,WUHU21636XXSP,2013-02-27 07:03:00,
2013-02-26 23:04:00,39.4,38.0,30.19,SSE,158,1.4,2.6,95,0.01,,,0.03,WUHU21636XXSP,2013-02-27 07:04:00,
2013-02-26 23:07:00,39.4,38.0,30.20,SSW,202,0.2,2.6,95,0.01,,,0.03,WUHU21636XXSP,2013-02-27 07:07:00,
2013-02-26 23:09:00,39.4,38.0,30.20,South,180,2.0,2.6,95,0.01,,,0.03,WUHU21636XXSP,2013-02-27 07:09:00,
2013-02-26 23:12:00,39.4,38.0,30.20,SSE,157,0.0,2.0,95,0.01,,,0.03,WUHU21636XXSP,2013-02-27 07:12:00,
2013-02-26 23:14:00,39.4,38.0,30.20,SSE,157,0.0,2.0,95,0.01,,,0.03,WUHU21636XXSP,2013-02-27 07:14:00,
2013-02-26 23:15:00,39.4,38.0,30.20,SSW,202,0.0,2.0,95,0.01,,,0.03,WUHU21636XXSP,2013-02-27 07:15:00,
2013-02-26 23:17:00,39.4,38.0,30.20,East,90,0.0,2.0,95,0.01,,,0.03,WUHU21636XXSP,2013-02-27 07:17:00,
2013-02-26 23:19:00,39.4,38.0,30.20,SSE,157,4.2,4.2,95,0.01,,,0.03,WUHU21636XXSP,2013-02-27 07:19:00,
2013-02-26 23:20:00,39.4,38.0,30.20,SSE,157,4.2,4.2,95,0.01,,,0.03,WUHU21636XXSP,2013-02-27 07:20:00,
2013-02-26 23:22:00,39.4,38.0,30.20,SSE,157,4.2,4.2,95,0.01,,,0.03,WUHU21636XXSP,2013-02-27 07:22:00,
2013-02-26 23:24:00,39.2,37.8,30.20,SE,135,2.9,4.2,95,0.01,,,0.03,WUHU21636XXSP,2013-02-27 07:24:00,
2013-02-26 23:25:00,39.2,37.8,30.20,SE,135,2.9,4.2,95,0.01,,,0.03,WUHU21636XXSP,2013-02-27 07:25:00,
2013-02-26 23:27:00,39.2,37.8,30.20,SE,135,0.0,4.2,95,0.01,,,0.03,WUHU21636XXSP,2013-02-27 07:27:00,
2013-02-26 23:29:00,39.2,37.8,30.20,SE,135,0.0,4.2,95,0.01,,,0.03,WUHU21636XXSP,2013-02-27 07:29:00,
2013-02-26 23:30:00,39.2,37.8,30.20,SSW,202,0.0,4.2,95,0.01,,,0.03,WUHU21636XXSP,2013-02-27 07:30:00,
2013-02-26 23:32:00,39.2,37.8,30.20,SSE,157,0.0,2.9,95,0.01,,,0.03,WUHU21636XXSP,2013-02-27 07:32:00,
2013-02-26 23:34:00,39.2,37.8,30.20,SSE,157,0.0,2.9,95,0.01,,,0.03,WUHU21636XXSP,2013-02-27 07:34:00,
2013-02-26 23:35:00,39.2,37.8,30.20,SSE,157,0.0,0.0,95,0.01,,,0.03,WUHU21636XXSP,2013-02-27 07:35:00,
2013-02-26 23:37:00,39.0,37.6,30.20,NE,45,0.0,0.0,95,0.01,,,0.03,WUHU21636XXSP,2013-02-27 07:37:00,
2013-02-26 23:39:00,39.0,37.6,30.20,SE,135,2.6,2.6,95,0.01,,,0.03,WUHU21636XXSP,2013-02-27 07:39:00,
2013-02-26 23:40:00,39.2,37.8,30.20,SE,135,2.6,2.6,95,0.01,,,0.03,WUHU21636XXSP,2013-02-27 07:40:00,
2013-02-26 23:42:00,39.2,37.8,30.20,SSE,157,0.0,2.6,95,0.01,,,0.03,WUHU21636XXSP,2013-02-27 07:42:00,
2013-02-26 23:44:00,39.2,37.8,30.20,SSE,157,0.0,2.6,95,0.01,,,0.03,WUHU21636XXSP,2013-02-27 07:44:00,
2013-02-26 23:45:00,39.0,37.6,30.20,SSE,157,0.0,2.6,95,0.01,,,0.03,WUHU21636XXSP,2013-02-27 07:45:00,
2013-02-26 23:47:00,39.0,37.6,30.20,SSE,157,0.0,2.6,95,0.01,,,0.03,WUHU21636XXSP,2013-02-27 07:47:00,
2013-02-26 23:49:00,39.0,37.9,30.20,SSE,157,3.3,3.3,96,0.01,,,0.03,WUHU21636XXSP,2013-02-27 07:49:00,
2013-02-26 23:51:00,39.0,37.9,30.20,SSE,157,3.3,3.3,96,0.00,,,0.03,WUHU21636XXSP,2013-02-27 07:51:00,
2013-02-26 23:52:00,39.0,37.9,30.20,SSE,157,3.3,3.3,96,0.00,,,0.03,WUHU21636XXSP,2013-02-27 07:52:00,
2013-02-26 23:55:00,39.0,37.9,30.20,SSW,202,0.0,3.3,96,0.00,,,0.03,WUHU21636XXSP,2013-02-27 07:55:00,
2013-02-26 23:56:00,39.0,37.9,30.20,SSE,157,0.0,3.3,96,0.00,,,0.03,WUHU21636XXSP,2013-02-27 07:56:00,
2013-02-26 23:57:00,39.2,38.1,30.20,SE,135,2.0,3.3,96,0.00,,,0.03,WUHU21636XXSP,2013-02-27 07:57:00,